Time,TemperatureF,DewpointF,PressureIn,WindDirection,WindDirectionDegrees,WindSpeedMPH,WindSpeedGustMPH,Humidity,HourlyPrecipIn,Conditions,Clouds,dailyrainin,SoftwareType,DateUTC
2013-05-12 00:00:00,60.4,59.5,29.66,SSE,152,0.0,0.0,97,0.00,,,0.26,VWS V14.01,2013-05-12 04:00:00,
2013-05-12 00:01:00,60.5,59.7,29.66,SSE,152,0.0,0.0,97,0.00,,,0.26,VWS V14.01,2013-05-12 04:01:00,
2013-05-12 00:02:00,60.5,59.7,29.66,SSE,152,0.0,0.0,97,0.00,,,0.26,VWS V14.01,2013-05-12 04:02:00,
2013-05-12 00:04:00,60.7,60.1,29.67,SSE,152,0.0,0.0,98,0.00,,,0.00,VWS V14.01,2013-05-12 04:04:00,
2013-05-12 00:09:00,61.3,60.7,29.67,SSE,152,0.0,0.0,98,0.00,,,0.00,VWS V14.01,2013-05-12 04:09:00,
2013-05-12 00:10:00,61.5,60.9,29.67,SSE,152,0.0,0.0,98,0.00,,,0.00,VWS V14.01,2013-05-12 04:10:00,
2013-05-12 00:11:00,61.6,61.0,29.67,SSE,152,0.0,0.0,98,0.00,,,0.00,VWS V14.01,2013-05-12 04:11:00,
2013-05-12 00:12:00,61.6,61.0,29.67,SSE,152,0.0,0.0,98,0.00,,,0.00,VWS V14.01,2013-05-12 04:12:00,
2013-05-12 00:15:00,62.0,61.1,29.67,SSE,152,0.0,0.0,97,0.00,,,0.00,VWS V14.01,2013-05-12 04:15:00,
2013-05-12 00:16:00,62.0,61.1,29.67,SSE,152,0.0,0.0,97,0.00,,,0.00,VWS V14.01,2013-05-12 04:16:00,
2013-05-12 00:20:00,62.3,61.7,29.67,SSE,152,0.0,0.0,98,0.00,,,0.00,VWS V14.01,2013-05-12 04:20:00,
2013-05-12 00:21:00,62.3,61.7,29.67,SSE,152,0.0,0.0,98,0.00,,,0.00,VWS V14.01,2013-05-12 04:21:00,
2013-05-12 00:23:00,62.4,61.5,29.67,SSE,152,0.0,0.0,97,0.00,,,0.00,VWS V14.01,2013-05-12 04:23:00,
2013-05-12 00:26:00,62.6,62.0,29.67,SSE,152,0.0,0.0,98,0.00,,,0.00,VWS V14.01,2013-05-12 04:26:00,
2013-05-12 00:27:00,62.7,62.1,29.67,SSE,152,0.0,0.0,98,0.00,,,0.00,VWS V14.01,2013-05-12 04:27:00,
2013-05-12 00:28:00,62.7,62.1,29.67,SSE,152,0.0,0.0,98,0.00,,,0.00,VWS V14.01,2013-05-12 04:28:00,
2013-05-12 00:29:00,62.9,62.3,29.67,SSE,152,0.0,0.0,98,0.00,,,0.00,VWS V14.01,2013-05-12 04:29:00,
2013-05-12 00:33:00,63.2,62.3,29.66,SSE,152,0.0,0.0,97,0.00,,,0.00,VWS V14.01,2013-05-12 04:33:00,
2013-05-12 00:34:00,63.2,62.3,29.66,SSE,152,0.0,0.0,97,0.00,,,0.00,VWS V14.01,2013-05-12 04:34:00,
2013-05-12 00:36:00,63.4,62.5,29.66,SSE,152,0.0,0.0,97,0.00,,,0.00,VWS V14.01,2013-05-12 04:36:00,
2013-05-12 00:37:00,63.5,62.9,29.66,SSE,152,4.0,5.0,98,0.00,,,0.00,VWS V14.01,2013-05-12 04:37:00,
2013-05-12 00:39:00,63.7,63.1,29.66,SSE,152,0.0,5.0,98,0.00,,,0.00,VWS V14.01,2013-05-12 04:39:00,
2013-05-12 00:40:00,63.7,63.1,29.66,SSE,152,0.0,5.0,98,0.00,,,0.00,VWS V14.01,2013-05-12 04:40:00,
2013-05-12 00:41:00,63.7,63.1,29.66,SSE,152,0.0,5.0,98,0.00,,,0.00,VWS V14.01,2013-05-12 04:41:00,
2013-05-12 00:42:00,63.9,63.0,29.66,SSE,152,0.0,5.0,97,0.00,,,0.00,VWS V14.01,2013-05-12 04:42:00,
2013-05-12 00:44:00,63.9,63.0,29.66,SSE,152,0.0,5.0,97,0.00,,,0.00,VWS V14.01,2013-05-12 04:44:00,
2013-05-12 00:46:00,63.9,63.0,29.66,SSE,152,0.0,5.0,97,0.00,,,0.00,VWS V14.01,2013-05-12 04:46:00,
2013-05-12 00:47:00,63.9,63.0,29.66,SSE,152,0.0,5.0,97,0.00,,,0.00,VWS V14.01,2013-05-12 04:47:00,
2013-05-12 00:48:00,63.9,63.0,29.65,SSE,152,0.0,5.0,97,0.00,,,0.00,VWS V14.01,2013-05-12 04:48:00,
2013-05-12 00:53:00,63.9,63.0,29.65,SSE,152,0.0,5.0,97,0.01,,,0.01,VWS V14.01,2013-05-12 04:53:00,
2013-05-12 00:54:00,63.9,63.0,29.65,SSE,152,0.0,5.0,97,0.01,,,0.01,VWS V14.01,2013-05-12 04:54:00,
2013-05-12 00:55:00,63.7,62.8,29.65,SSE,152,0.0,5.0,97,0.01,,,0.01,VWS V14.01,2013-05-12 04:55:00,
2013-05-12 00:59:00,63.7,62.8,29.65,SSE,152,0.0,5.0,97,0.01,,,0.01,VWS V14.01,2013-05-12 04:59:00,
2013-05-12 01:00:00,63.7,62.8,29.65,SSE,152,1.0,5.0,97,0.01,,,0.01,VWS V14.01,2013-05-12 05:00:00,
2013-05-12 01:01:00,63.7,62.8,29.65,SSE,152,2.0,6.0,97,0.01,,,0.01,VWS V14.01,2013-05-12 05:01:00,
2013-05-12 01:02:00,63.7,62.8,29.65,SSE,152,0.0,6.0,97,0.01,,,0.01,VWS V14.01,2013-05-12 05:02:00,
2013-05-12 01:03:00,63.9,63.0,29.65,SSE,152,0.0,6.0,97,0.01,,,0.01,VWS V14.01,2013-05-12 05:03:00,
2013-05-12 01:06:00,63.9,63.3,29.65,SSE,152,0.0,0.0,98,0.01,,,0.01,VWS V14.01,2013-05-12 05:06:00,
2013-05-12 01:07:00,64.0,63.4,29.65,SSE,152,4.0,4.0,98,0.01,,,0.01,VWS V14.01,2013-05-12 05:07:00,
2013-05-12 01:08:00,64.0,63.4,29.65,SSE,152,0.0,4.0,98,0.01,,,0.01,VWS V14.01,2013-05-12 05:08:00,
2013-05-12 01:11:00,64.2,63.6,29.65,SSE,153,0.0,5.0,98,0.01,,,0.01,VWS V14.01,2013-05-12 05:11:00,
2013-05-12 01:13:00,64.2,63.6,29.65,SSE,153,1.0,5.0,98,0.01,,,0.01,VWS V14.01,2013-05-12 05:13:00,
2013-05-12 01:16:00,64.2,63.6,29.65,SSW,211,0.0,6.0,98,0.01,,,0.01,VWS V14.01,2013-05-12 05:16:00,
2013-05-12 01:18:00,64.2,63.3,29.65,SSW,211,0.0,6.0,97,0.01,,,0.01,VWS V14.01,2013-05-12 05:18:00,
2013-05-12 01:19:00,64.2,63.3,29.65,SSW,211,0.0,6.0,97,0.01,,,0.01,VWS V14.01,2013-05-12 05:19:00,
2013-05-12 01:20:00,64.2,63.3,29.65,SSW,211,0.0,6.0,97,0.01,,,0.01,VWS V14.01,2013-05-12 05:20:00,
2013-05-12 01:21:00,64.2,63.3,29.65,SSW,211,0.0,6.0,97,0.01,,,0.01,VWS V14.01,2013-05-12 05:21:00,
2013-05-12 01:22:00,64.2,63.3,29.65,SSW,211,4.0,6.0,97,0.01,,,0.01,VWS V14.01,2013-05-12 05:22:00,
2013-05-12 01:25:00,64.2,63.3,29.65,SSW,211,3.0,6.0,97,0.01,,,0.01,VWS V14.01,2013-05-12 05:25:00,
2013-05-12 01:28:00,64.2,63.3,29.65,WNW,284,4.0,7.0,97,0.01,,,0.01,VWS V14.01,2013-05-12 05:28:00,
2013-05-12 01:30:00,64.2,63.3,29.65,WNW,288,6.0,8.0,97,0.01,,,0.01,VWS V14.01,2013-05-12 05:30:00,
2013-05-12 01:33:00,64.0,63.1,29.64,WNW,292,6.0,9.0,97,0.01,,,0.01,VWS V14.01,2013-05-12 05:33:00,
2013-05-12 01:35:00,64.0,63.1,29.64,WNW,292,6.0,7.0,97,0.01,,,0.01,VWS V14.01,2013-05-12 05:35:00,
2013-05-12 01:36:00,63.9,63.0,29.64,WNW,292,5.0,8.0,97,0.01,,,0.01,VWS V14.01,2013-05-12 05:36:00,
2013-05-12 01:37:00,63.9,63.0,29.64,WNW,293,3.0,8.0,97,0.01,,,0.01,VWS V14.01,2013-05-12 05:37:00,
2013-05-12 01:41:00,63.4,62.5,29.64,WNW,290,7.0,9.0,97,0.01,,,0.01,VWS V14.01,2013-05-12 05:41:00,
2013-05-12 01:42:00,63.2,62.3,29.64,West,278,9.0,9.0,97,0.01,,,0.01,VWS V14.01,2013-05-12 05:42:00,
2013-05-12 01:44:00,63.2,62.3,29.64,WNW,286,5.0,9.0,97,0.01,,,0.01,VWS V14.01,2013-05-12 05:44:00,
2013-05-12 01:46:00,62.9,62.0,29.64,West,279,9.0,14.0,97,0.01,,,0.01,VWS V14.01,2013-05-12 05:46:00,
2013-05-12 01:47:00,62.7,61.8,29.64,NW,309,4.0,14.0,97,0.01,,,0.01,VWS V14.01,2013-05-12 05:47:00,
2013-05-12 01:51:00,62.4,61.5,29.64,WNW,302,3.0,14.0,97,0.01,,,0.01,VWS V14.01,2013-05-12 05:51:00,
2013-05-12 01:52:00,62.3,61.4,29.64,NW,306,4.0,14.0,97,0.01,,,0.01,VWS V14.01,2013-05-12 05:52:00,
2013-05-12 01:53:00,62.1,61.2,29.64,WNW,286,9.0,14.0,97,0.01,,,0.01,VWS V14.01,2013-05-12 05:53:00,
2013-05-12 01:56:00,62.0,61.1,29.64,NW,304,7.0,14.0,97,0.01,,,0.01,VWS V14.01,2013-05-12 05:56:00,
2013-05-12 01:58:00,61.8,60.9,29.64,NW,315,2.0,14.0,97,0.01,,,0.01,VWS V14.01,2013-05-12 05:58:00,
2013-05-12 01:59:00,61.8,60.9,29.64,WNW,295,6.0,14.0,97,0.01,,,0.01,VWS V14.01,2013-05-12 05:59:00,
2013-05-12 02:00:00,61.8,60.9,29.64,WNW,289,6.0,14.0,97,0.01,,,0.01,VWS V14.01,2013-05-12 06:00:00,
2013-05-12 02:03:00,61.6,60.7,29.64,WNW,290,5.0,14.0,97,0.01,,,0.01,VWS V14.01,2013-05-12 06:03:00,
2013-05-12 02:06:00,61.6,60.7,29.63,WNW,284,5.0,8.0,97,0.00,,,0.01,VWS V14.01,2013-05-12 06:06:00,
2013-05-12 02:07:00,61.6,60.7,29.63,WNW,284,3.0,8.0,97,0.00,,,0.01,VWS V14.01,2013-05-12 06:07:00,
2013-05-12 02:10:00,61.5,60.6,29.63,WNW,284,0.0,8.0,97,0.00,,,0.01,VWS V14.01,2013-05-12 06:10:00,
2013-05-12 02:12:00,61.3,60.4,29.63,WNW,284,0.0,8.0,97,0.00,,,0.01,VWS V14.01,2013-05-12 06:12:00,
2013-05-12 02:13:00,61.3,60.4,29.63,WNW,282,1.0,8.0,97,0.00,,,0.01,VWS V14.01,2013-05-12 06:13:00,
2013-05-12 02:15:00,61.3,60.4,29.63,West,280,0.0,8.0,97,0.00,,,0.01,VWS V14.01,2013-05-12 06:15:00,
2013-05-12 02:16:00,61.3,60.4,29.63,West,280,2.0,8.0,97,0.00,,,0.01,VWS V14.01,2013-05-12 06:16:00,
2013-05-12 02:19:00,61.3,60.4,29.62,West,281,2.0,8.0,97,0.00,,,0.01,VWS V14.01,2013-05-12 06:19:00,
2013-05-12 02:20:00,61.3,60.4,29.62,West,281,1.0,8.0,97,0.00,,,0.01,VWS V14.01,2013-05-12 06:20:00,
2013-05-12 02:24:00,61.2,60.3,29.62,West,281,0.0,8.0,97,0.00,,,0.01,VWS V14.01,2013-05-12 06:24:00,
2013-05-12 02:25:00,61.0,60.2,29.62,West,281,3.0,8.0,97,0.00,,,0.01,VWS V14.01,2013-05-12 06:25:00,
2013-05-12 02:26:00,61.0,60.2,29.62,West,281,0.0,8.0,97,0.00,,,0.01,VWS V14.01,2013-05-12 06:26:00,
2013-05-12 02:28:00,61.0,60.2,29.62,West,281,0.0,8.0,97,0.00,,,0.01,VWS V14.01,2013-05-12 06:28:00,
2013-05-12 02:30:00,60.9,60.0,29.62,West,274,3.0,9.0,97,0.00,,,0.01,VWS V14.01,2013-05-12 06:30:00,
2013-05-12 02:32:00,60.9,60.0,29.62,West,274,0.0,9.0,97,0.00,,,0.01,VWS V14.01,2013-05-12 06:32:00,
2013-05-12 02:33:00,60.9,60.0,29.62,West,274,0.0,9.0,97,0.00,,,0.01,VWS V14.01,2013-05-12 06:33:00,
2013-05-12 02:34:00,60.9,60.0,29.62,West,274,2.0,9.0,97,0.00,,,0.01,VWS V14.01,2013-05-12 06:34:00,
2013-05-12 02:35:00,60.9,60.0,29.62,West,273,4.0,4.0,97,0.00,,,0.01,VWS V14.01,2013-05-12 06:35:00,
2013-05-12 02:36:00,60.7,59.8,29.62,West,273,4.0,5.0,97,0.00,,,0.01,VWS V14.01,2013-05-12 06:36:00,
2013-05-12 02:39:00,60.7,59.8,29.62,West,272,0.0,5.0,97,0.00,,,0.01,VWS V14.01,2013-05-12 06:39:00,
2013-05-12 02:42:00,60.5,59.4,29.62,West,274,4.0,7.0,96,0.00,,,0.01,VWS V14.01,2013-05-12 06:42:00,
2013-05-12 02:44:00,60.4,59.3,29.62,West,276,7.0,8.0,96,0.00,,,0.01,VWS V14.01,2013-05-12 06:44:00,
2013-05-12 02:46:00,60.4,59.3,29.62,West,266,7.0,8.0,96,0.00,,,0.01,VWS V14.01,2013-05-12 06:46:00,
2013-05-12 02:47:00,60.4,59.3,29.62,WNW,287,3.0,9.0,96,0.00,,,0.01,VWS V14.01,2013-05-12 06:47:00,
2013-05-12 02:49:00,60.2,59.1,29.64,West,271,6.0,9.0,96,0.00,,,0.01,VWS V14.01,2013-05-12 06:49:00,
2013-05-12 02:53:00,59.9,58.8,29.64,West,275,8.0,13.0,96,0.00,,,0.01,VWS V14.01,2013-05-12 06:53:00,
2013-05-12 02:55:00,59.9,58.8,29.64,West,281,6.0,13.0,96,0.00,,,0.01,VWS V14.01,2013-05-12 06:55:00,
2013-05-12 02:58:00,59.8,58.7,29.64,NW,304,5.0,13.0,96,0.00,,,0.01,VWS V14.01,2013-05-12 06:58:00,
2013-05-12 02:59:00,59.8,58.7,29.64,WNW,294,7.0,13.0,96,0.00,,,0.01,VWS V14.01,2013-05-12 06:59:00,
2013-05-12 03:00:00,59.8,58.7,29.64,WNW,300,0.0,13.0,96,0.00,,,0.01,VWS V14.01,2013-05-12 07:00:00,
2013-05-12 03:03:00,59.6,58.5,29.64,West,274,6.0,13.0,96,0.00,,,0.01,VWS V14.01,2013-05-12 07:03:00,
2013-05-12 03:05:00,59.6,58.5,29.64,West,275,8.0,9.0,96,0.00,,,0.01,VWS V14.01,2013-05-12 07:05:00,
2013-05-12 03:06:00,59.6,58.5,29.64,WNW,283,10.0,10.0,96,0.00,,,0.01,VWS V14.01,2013-05-12 07:06:00,
2013-05-12 03:09:00,59.6,58.5,29.64,NW,304,6.0,10.0,96,0.00,,,0.01,VWS V14.01,2013-05-12 07:09:00,
2013-05-12 03:11:00,59.6,58.5,29.64,WNW,284,8.0,11.0,96,0.00,,,0.01,VWS V14.01,2013-05-12 07:11:00,
2013-05-12 03:15:00,59.8,58.4,29.64,West,281,6.0,11.0,95,0.00,,,0.01,VWS V14.01,2013-05-12 07:15:00,
2013-05-12 03:16:00,59.8,58.4,29.64,WNW,296,4.0,11.0,95,0.00,,,0.01,VWS V14.01,2013-05-12 07:16:00,
2013-05-12 03:19:00,59.6,58.2,29.64,WNW,284,3.0,11.0,95,0.00,,,0.01,VWS V14.01,2013-05-12 07:19:00,
2013-05-12 03:20:00,59.6,58.2,29.64,WNW,285,3.0,11.0,95,0.00,,,0.01,VWS V14.01,2013-05-12 07:20:00,
2013-05-12 03:21:00,59.8,58.4,29.64,West,269,4.0,11.0,95,0.00,,,0.01,VWS V14.01,2013-05-12 07:21:00,
2013-05-12 03:23:00,59.8,58.4,29.64,West,271,4.0,11.0,95,0.00,,,0.01,VWS V14.01,2013-05-12 07:23:00,
2013-05-12 03:25:00,59.8,58.1,29.64,West,281,3.0,11.0,94,0.00,,,0.01,VWS V14.01,2013-05-12 07:25:00,
2013-05-12 03:26:00,59.8,58.1,29.64,West,273,7.0,11.0,94,0.00,,,0.01,VWS V14.01,2013-05-12 07:26:00,
2013-05-12 03:27:00,59.8,58.1,29.64,West,273,6.0,11.0,94,0.00,,,0.01,VWS V14.01,2013-05-12 07:27:00,
2013-05-12 03:30:00,59.8,58.1,29.64,West,273,3.0,11.0,94,0.00,,,0.01,VWS V14.01,2013-05-12 07:30:00,
2013-05-12 03:31:00,59.8,58.1,29.64,West,273,2.0,11.0,94,0.00,,,0.01,VWS V14.01,2013-05-12 07:31:00,
2013-05-12 03:32:00,59.8,58.1,29.64,West,273,0.0,11.0,94,0.00,,,0.01,VWS V14.01,2013-05-12 07:32:00,
2013-05-12 03:34:00,59.8,58.1,29.65,West,273,0.0,11.0,94,0.00,,,0.01,VWS V14.01,2013-05-12 07:34:00,
2013-05-12 03:37:00,59.8,58.1,29.65,West,274,0.0,5.0,94,0.00,,,0.01,VWS V14.01,2013-05-12 07:37:00,
2013-05-12 03:38:00,59.8,58.1,29.65,West,274,2.0,5.0,94,0.00,,,0.01,VWS V14.01,2013-05-12 07:38:00,
2013-05-12 03:40:00,59.8,58.1,29.65,West,268,4.0,6.0,94,0.00,,,0.01,VWS V14.01,2013-05-12 07:40:00,
2013-05-12 03:41:00,59.8,57.8,29.65,West,268,0.0,6.0,93,0.00,,,0.01,VWS V14.01,2013-05-12 07:41:00,
2013-05-12 03:45:00,59.9,57.9,29.65,West,267,5.0,6.0,93,0.00,,,0.01,VWS V14.01,2013-05-12 07:45:00,
2013-05-12 03:46:00,59.9,57.9,29.65,West,267,0.0,6.0,93,0.00,,,0.01,VWS V14.01,2013-05-12 07:46:00,
2013-05-12 03:47:00,59.8,57.8,29.65,West,267,0.0,6.0,93,0.00,,,0.01,VWS V14.01,2013-05-12 07:47:00,
2013-05-12 03:48:00,59.8,57.8,29.65,West,267,0.0,6.0,93,0.00,,,0.01,VWS V14.01,2013-05-12 07:48:00,
2013-05-12 03:52:00,59.8,57.8,29.65,West,267,0.0,6.0,93,0.00,,,0.01,VWS V14.01,2013-05-12 07:52:00,
2013-05-12 03:53:00,59.8,57.8,29.65,West,267,0.0,6.0,93,0.00,,,0.01,VWS V14.01,2013-05-12 07:53:00,
2013-05-12 03:54:00,59.8,57.8,29.65,West,267,0.0,6.0,93,0.00,,,0.01,VWS V14.01,2013-05-12 07:54:00,
2013-05-12 03:55:00,59.8,57.8,29.65,West,267,0.0,6.0,93,0.00,,,0.01,VWS V14.01,2013-05-12 07:55:00,
2013-05-12 03:58:00,59.8,57.8,29.65,West,267,3.0,6.0,93,0.00,,,0.01,VWS V14.01,2013-05-12 07:58:00,
2013-05-12 03:59:00,59.8,57.8,29.65,West,267,0.0,6.0,93,0.00,,,0.01,VWS V14.01,2013-05-12 07:59:00,
2013-05-12 04:00:00,59.8,57.8,29.65,West,266,0.0,6.0,93,0.00,,,0.01,VWS V14.01,2013-05-12 08:00:00,
2013-05-12 04:04:00,59.8,57.8,29.65,West,266,0.0,6.0,93,0.00,,,0.01,VWS V14.01,2013-05-12 08:04:00,
2013-05-12 04:05:00,59.8,57.8,29.65,West,266,0.0,0.0,93,0.00,,,0.01,VWS V14.01,2013-05-12 08:05:00,
2013-05-12 04:06:00,59.8,57.8,29.65,West,265,0.0,0.0,93,0.00,,,0.01,VWS V14.01,2013-05-12 08:06:00,
2013-05-12 04:09:00,59.8,57.8,29.65,West,265,0.0,5.0,93,0.00,,,0.01,VWS V14.01,2013-05-12 08:09:00,
2013-05-12 04:10:00,59.8,57.8,29.65,West,265,3.0,5.0,93,0.01,,,0.02,VWS V14.01,2013-05-12 08:10:00,
2013-05-12 04:12:00,59.8,57.8,29.65,West,265,5.0,5.0,93,0.01,,,0.02,VWS V14.01,2013-05-12 08:12:00,
2013-05-12 04:14:00,59.8,57.8,29.65,West,265,0.0,5.0,93,0.01,,,0.02,VWS V14.01,2013-05-12 08:14:00,
2013-05-12 04:15:00,59.8,57.8,29.65,West,264,0.0,5.0,93,0.01,,,0.02,VWS V14.01,2013-05-12 08:15:00,
2013-05-12 04:18:00,59.9,57.9,29.65,WSW,254,5.0,7.0,93,0.01,,,0.02,VWS V14.01,2013-05-12 08:18:00,
2013-05-12 04:19:00,59.9,57.9,29.67,WSW,253,4.0,7.0,93,0.01,,,0.02,VWS V14.01,2013-05-12 08:19:00,
2013-05-12 04:23:00,59.8,57.8,29.67,WSW,239,4.0,7.0,93,0.02,,,0.03,VWS V14.01,2013-05-12 08:23:00,
2013-05-12 04:24:00,59.8,57.8,29.67,WSW,239,2.0,7.0,93,0.02,,,0.03,VWS V14.01,2013-05-12 08:24:00,
2013-05-12 04:25:00,59.8,57.8,29.67,WSW,240,4.0,7.0,93,0.02,,,0.03,VWS V14.01,2013-05-12 08:25:00,
2013-05-12 04:26:00,59.8,57.8,29.67,WSW,240,4.0,7.0,93,0.02,,,0.03,VWS V14.01,2013-05-12 08:26:00,
2013-05-12 04:27:00,59.8,57.8,29.67,WSW,240,2.0,7.0,93,0.02,,,0.03,VWS V14.01,2013-05-12 08:27:00,
2013-05-12 04:28:00,59.8,57.8,29.67,WSW,240,0.0,7.0,93,0.02,,,0.03,VWS V14.01,2013-05-12 08:28:00,
2013-05-12 04:30:00,59.8,57.8,29.67,WSW,239,0.0,7.0,93,0.02,,,0.03,VWS V14.01,2013-05-12 08:30:00,
2013-05-12 04:32:00,59.6,57.6,29.67,WSW,240,0.0,7.0,93,0.02,,,0.03,VWS V14.01,2013-05-12 08:32:00,
2013-05-12 04:34:00,59.6,57.6,29.65,WSW,240,0.0,7.0,93,0.02,,,0.03,VWS V14.01,2013-05-12 08:34:00,
2013-05-12 04:38:00,59.5,57.5,29.65,WSW,240,0.0,0.0,93,0.03,,,0.04,VWS V14.01,2013-05-12 08:38:00,
2013-05-12 04:40:00,59.5,57.5,29.65,WSW,240,0.0,0.0,93,0.03,,,0.04,VWS V14.01,2013-05-12 08:40:00,
2013-05-12 04:44:00,59.5,57.5,29.65,WSW,239,0.0,0.0,93,0.03,,,0.04,VWS V14.01,2013-05-12 08:44:00,
2013-05-12 04:45:00,59.5,57.5,29.65,WSW,240,0.0,0.0,93,0.03,,,0.04,VWS V14.01,2013-05-12 08:45:00,
2013-05-12 04:46:00,59.5,57.5,29.65,WSW,240,0.0,0.0,93,0.03,,,0.04,VWS V14.01,2013-05-12 08:46:00,
2013-05-12 04:47:00,59.5,57.5,29.65,WSW,240,0.0,0.0,93,0.03,,,0.04,VWS V14.01,2013-05-12 08:47:00,
2013-05-12 04:50:00,59.3,57.3,29.63,WSW,240,0.0,0.0,93,0.03,,,0.04,VWS V14.01,2013-05-12 08:50:00,
2013-05-12 04:51:00,59.3,57.3,29.63,WSW,240,0.0,0.0,93,0.03,,,0.04,VWS V14.01,2013-05-12 08:51:00,
2013-05-12 04:52:00,59.3,57.3,29.63,WSW,240,0.0,0.0,93,0.03,,,0.04,VWS V14.01,2013-05-12 08:52:00,
2013-05-12 04:53:00,59.3,57.3,29.63,WSW,240,0.0,0.0,93,0.03,,,0.04,VWS V14.01,2013-05-12 08:53:00,
2013-05-12 04:54:00,59.3,57.3,29.63,WSW,240,0.0,0.0,93,0.03,,,0.04,VWS V14.01,2013-05-12 08:54:00,
2013-05-12 04:57:00,59.3,57.3,29.63,WSW,240,0.0,0.0,93,0.03,,,0.04,VWS V14.01,2013-05-12 08:57:00,
2013-05-12 04:59:00,59.3,57.3,29.63,WSW,240,0.0,0.0,93,0.03,,,0.04,VWS V14.01,2013-05-12 08:59:00,
2013-05-12 05:00:00,59.2,57.2,29.63,WSW,240,0.0,0.0,93,0.03,,,0.04,VWS V14.01,2013-05-12 09:00:00,
2013-05-12 05:01:00,59.2,57.2,29.63,WSW,240,0.0,0.0,93,0.03,,,0.04,VWS V14.01,2013-05-12 09:01:00,
2013-05-12 05:03:00,59.2,57.2,29.64,WSW,240,0.0,0.0,93,0.03,,,0.04,VWS V14.01,2013-05-12 09:03:00,
2013-05-12 05:04:00,59.2,57.2,29.64,WSW,240,0.0,0.0,93,0.03,,,0.04,VWS V14.01,2013-05-12 09:04:00,
2013-05-12 05:06:00,59.2,57.2,29.64,WSW,240,0.0,0.0,93,0.03,,,0.04,VWS V14.01,2013-05-12 09:06:00,
2013-05-12 05:08:00,59.2,57.2,29.64,WSW,240,0.0,4.0,93,0.03,,,0.04,VWS V14.01,2013-05-12 09:08:00,
2013-05-12 05:11:00,59.2,57.2,29.64,WSW,240,0.0,4.0,93,0.03,,,0.04,VWS V14.01,2013-05-12 09:11:00,
2013-05-12 05:13:00,59.2,57.2,29.64,WSW,239,0.0,4.0,93,0.03,,,0.04,VWS V14.01,2013-05-12 09:13:00,
2013-05-12 05:14:00,59.2,57.2,29.64,WSW,240,0.0,4.0,93,0.03,,,0.04,VWS V14.01,2013-05-12 09:14:00,
2013-05-12 05:15:00,59.2,57.2,29.64,WSW,239,0.0,4.0,93,0.03,,,0.04,VWS V14.01,2013-05-12 09:15:00,
2013-05-12 05:17:00,59.2,57.2,29.64,WSW,241,2.0,6.0,93,0.03,,,0.04,VWS V14.01,2013-05-12 09:17:00,
2013-05-12 05:22:00,59.2,57.5,29.66,WSW,241,4.0,6.0,94,0.03,,,0.04,VWS V14.01,2013-05-12 09:22:00,
2013-05-12 05:24:00,59.2,57.5,29.66,WSW,241,1.0,6.0,94,0.03,,,0.04,VWS V14.01,2013-05-12 09:24:00,
2013-05-12 05:25:00,59.2,57.5,29.66,WSW,241,4.0,6.0,94,0.03,,,0.04,VWS V14.01,2013-05-12 09:25:00,
2013-05-12 05:29:00,59.2,57.5,29.66,WSW,249,5.0,7.0,94,0.03,,,0.04,VWS V14.01,2013-05-12 09:29:00,
2013-05-12 05:30:00,59.2,57.5,29.66,WSW,249,3.0,7.0,94,0.03,,,0.04,VWS V14.01,2013-05-12 09:30:00,
2013-05-12 05:31:00,59.2,57.5,29.66,WSW,249,1.0,7.0,94,0.03,,,0.04,VWS V14.01,2013-05-12 09:31:00,
2013-05-12 05:32:00,59.2,57.5,29.66,WSW,249,3.0,7.0,94,0.03,,,0.04,VWS V14.01,2013-05-12 09:32:00,
2013-05-12 05:34:00,59.2,57.5,29.67,WSW,249,0.0,0.0,94,0.01,,,0.04,VWS V14.01,2013-05-12 09:34:00,
2013-05-12 05:35:00,59.0,57.3,29.67,WSW,249,0.0,0.0,94,0.01,,,0.04,VWS V14.01,2013-05-12 09:35:00,
2013-05-12 05:37:00,59.0,57.3,29.67,WSW,249,3.0,6.0,94,0.01,,,0.04,VWS V14.01,2013-05-12 09:37:00,
2013-05-12 05:38:00,59.0,57.3,29.67,WSW,249,2.0,6.0,94,0.01,,,0.04,VWS V14.01,2013-05-12 09:38:00,
2013-05-12 05:40:00,59.0,57.3,29.67,WSW,249,0.0,6.0,94,0.01,,,0.04,VWS V14.01,2013-05-12 09:40:00,
2013-05-12 05:41:00,59.0,57.3,29.67,WSW,249,0.0,6.0,94,0.01,,,0.04,VWS V14.01,2013-05-12 09:41:00,
2013-05-12 05:43:00,59.0,57.3,29.67,WSW,249,0.0,6.0,94,0.01,,,0.04,VWS V14.01,2013-05-12 09:43:00,
2013-05-12 05:44:00,59.0,57.3,29.67,WSW,249,3.0,6.0,94,0.01,,,0.04,VWS V14.01,2013-05-12 09:44:00,
2013-05-12 05:47:00,59.0,57.3,29.67,WSW,249,0.0,6.0,94,0.01,,,0.04,VWS V14.01,2013-05-12 09:47:00,
2013-05-12 05:48:00,59.0,57.3,29.66,WSW,249,3.0,6.0,94,0.01,,,0.04,VWS V14.01,2013-05-12 09:48:00,
2013-05-12 05:49:00,59.0,57.3,29.66,WSW,249,5.0,6.0,94,0.01,,,0.04,VWS V14.01,2013-05-12 09:49:00,
2013-05-12 05:50:00,59.0,57.3,29.66,WSW,249,3.0,6.0,94,0.01,,,0.04,VWS V14.01,2013-05-12 09:50:00,
2013-05-12 05:51:00,59.0,57.3,29.66,WSW,249,4.0,6.0,94,0.01,,,0.04,VWS V14.01,2013-05-12 09:51:00,
2013-05-12 05:54:00,58.9,57.2,29.66,WSW,249,0.0,6.0,94,0.01,,,0.04,VWS V14.01,2013-05-12 09:54:00,
2013-05-12 05:55:00,58.9,57.2,29.66,WSW,249,2.0,6.0,94,0.01,,,0.04,VWS V14.01,2013-05-12 09:55:00,
2013-05-12 05:57:00,58.9,57.2,29.66,WSW,249,0.0,6.0,94,0.01,,,0.04,VWS V14.01,2013-05-12 09:57:00,
2013-05-12 05:59:00,58.9,57.2,29.66,WSW,249,0.0,6.0,94,0.01,,,0.04,VWS V14.01,2013-05-12 09:59:00,
2013-05-12 06:04:00,58.9,57.2,29.67,WSW,251,3.0,7.0,94,0.01,,,0.04,VWS V14.01,2013-05-12 10:04:00,
2013-05-12 06:06:00,58.9,57.2,29.67,WSW,252,6.0,6.0,94,0.00,,,0.04,VWS V14.01,2013-05-12 10:06:00,
2013-05-12 06:07:00,58.9,57.2,29.67,West,263,3.0,8.0,94,0.00,,,0.04,VWS V14.01,2013-05-12 10:07:00,
2013-05-12 06:09:00,58.9,57.2,29.67,West,263,2.0,8.0,94,0.00,,,0.04,VWS V14.01,2013-05-12 10:09:00,
2013-05-12 06:11:00,58.9,57.2,29.67,West,263,0.0,8.0,94,0.00,,,0.04,VWS V14.01,2013-05-12 10:11:00,
2013-05-12 06:12:00,58.9,57.2,29.67,West,263,0.0,8.0,94,0.00,,,0.04,VWS V14.01,2013-05-12 10:12:00,
2013-05-12 06:14:00,58.9,57.2,29.67,West,263,0.0,8.0,94,0.00,,,0.04,VWS V14.01,2013-05-12 10:14:00,
2013-05-12 06:16:00,58.9,57.2,29.67,West,263,0.0,8.0,94,0.00,,,0.04,VWS V14.01,2013-05-12 10:16:00,
2013-05-12 06:17:00,58.9,57.2,29.67,West,263,0.0,8.0,94,0.00,,,0.04,VWS V14.01,2013-05-12 10:17:00,
2013-05-12 06:20:00,58.9,57.2,29.67,West,263,0.0,8.0,94,0.00,,,0.04,VWS V14.01,2013-05-12 10:20:00,
2013-05-12 06:21:00,58.9,57.2,29.67,West,263,5.0,8.0,94,0.00,,,0.04,VWS V14.01,2013-05-12 10:21:00,
2013-05-12 06:22:00,58.7,57.0,29.67,West,263,0.0,8.0,94,0.00,,,0.04,VWS V14.01,2013-05-12 10:22:00,
2013-05-12 06:23:00,58.7,57.0,29.67,West,263,0.0,8.0,94,0.00,,,0.04,VWS V14.01,2013-05-12 10:23:00,
2013-05-12 06:27:00,58.7,57.0,29.67,West,263,0.0,8.0,94,0.00,,,0.04,VWS V14.01,2013-05-12 10:27:00,
2013-05-12 06:28:00,58.7,57.0,29.67,West,263,4.0,8.0,94,0.00,,,0.04,VWS V14.01,2013-05-12 10:28:00,
2013-05-12 06:29:00,58.7,57.0,29.67,West,263,0.0,8.0,94,0.00,,,0.04,VWS V14.01,2013-05-12 10:29:00,
2013-05-12 06:32:00,58.6,56.9,29.67,West,263,2.0,8.0,94,0.00,,,0.04,VWS V14.01,2013-05-12 10:32:00,
2013-05-12 06:34:00,58.6,56.9,29.67,West,263,0.0,0.0,94,0.00,,,0.04,VWS V14.01,2013-05-12 10:34:00,
2013-05-12 06:35:00,58.6,56.9,29.67,West,263,0.0,0.0,94,0.00,,,0.04,VWS V14.01,2013-05-12 10:35:00,
2013-05-12 06:38:00,58.6,56.9,29.67,West,263,0.0,0.0,94,0.01,,,0.05,VWS V14.01,2013-05-12 10:38:00,
2013-05-12 06:39:00,58.6,56.9,29.67,West,263,0.0,0.0,94,0.01,,,0.05,VWS V14.01,2013-05-12 10:39:00,
2013-05-12 06:40:00,58.6,56.9,29.67,West,263,0.0,0.0,94,0.01,,,0.05,VWS V14.01,2013-05-12 10:40:00,
2013-05-12 06:42:00,58.6,56.9,29.67,West,263,0.0,4.0,94,0.01,,,0.05,VWS V14.01,2013-05-12 10:42:00,
2013-05-12 06:43:00,58.6,56.9,29.67,West,263,0.0,4.0,94,0.01,,,0.05,VWS V14.01,2013-05-12 10:43:00,
2013-05-12 06:44:00,58.6,56.9,29.67,West,263,0.0,4.0,94,0.01,,,0.05,VWS V14.01,2013-05-12 10:44:00,
2013-05-12 06:46:00,58.6,56.9,29.67,West,263,1.0,5.0,94,0.01,,,0.05,VWS V14.01,2013-05-12 10:46:00,
2013-05-12 06:47:00,58.6,56.9,29.67,West,263,5.0,6.0,94,0.01,,,0.05,VWS V14.01,2013-05-12 10:47:00,
2013-05-12 06:48:00,58.6,56.9,29.67,West,263,0.0,6.0,94,0.01,,,0.05,VWS V14.01,2013-05-12 10:48:00,
2013-05-12 06:50:00,58.6,56.9,29.67,West,263,0.0,6.0,94,0.01,,,0.05,VWS V14.01,2013-05-12 10:50:00,
2013-05-12 06:52:00,58.6,56.9,29.67,West,263,0.0,6.0,94,0.01,,,0.05,VWS V14.01,2013-05-12 10:52:00,
2013-05-12 06:55:00,58.6,56.9,29.67,West,263,0.0,6.0,94,0.01,,,0.05,VWS V14.01,2013-05-12 10:55:00,
2013-05-12 06:57:00,58.6,56.9,29.67,West,263,0.0,6.0,94,0.01,,,0.05,VWS V14.01,2013-05-12 10:57:00,
2013-05-12 07:00:00,58.7,57.0,29.67,West,263,2.0,6.0,94,0.01,,,0.05,VWS V14.01,2013-05-12 11:00:00,
2013-05-12 07:01:00,58.7,57.0,29.67,West,263,0.0,6.0,94,0.01,,,0.05,VWS V14.01,2013-05-12 11:01:00,
2013-05-12 07:02:00,58.7,57.0,29.67,West,263,0.0,6.0,94,0.01,,,0.05,VWS V14.01,2013-05-12 11:02:00,
2013-05-12 07:05:00,58.7,57.0,29.68,West,263,6.0,7.0,94,0.01,,,0.05,VWS V14.01,2013-05-12 11:05:00,
2013-05-12 07:06:00,58.6,56.9,29.68,West,263,2.0,7.0,94,0.01,,,0.05,VWS V14.01,2013-05-12 11:06:00,
2013-05-12 07:07:00,58.6,56.9,29.68,West,263,5.0,7.0,94,0.01,,,0.05,VWS V14.01,2013-05-12 11:07:00,
2013-05-12 07:10:00,58.6,56.9,29.68,West,264,3.0,7.0,94,0.01,,,0.05,VWS V14.01,2013-05-12 11:10:00,
2013-05-12 07:11:00,58.6,56.9,29.68,West,264,1.0,7.0,94,0.01,,,0.05,VWS V14.01,2013-05-12 11:11:00,
2013-05-12 07:13:00,58.6,56.9,29.68,WNW,284,5.0,10.0,94,0.01,,,0.05,VWS V14.01,2013-05-12 11:13:00,
2013-05-12 07:14:00,58.6,56.9,29.68,West,281,4.0,10.0,94,0.01,,,0.05,VWS V14.01,2013-05-12 11:14:00,
2013-05-12 07:16:00,58.4,56.7,29.68,WNW,283,0.0,10.0,94,0.01,,,0.05,VWS V14.01,2013-05-12 11:16:00,
2013-05-12 07:17:00,58.4,56.7,29.68,WNW,283,0.0,10.0,94,0.01,,,0.05,VWS V14.01,2013-05-12 11:17:00,
2013-05-12 07:18:00,58.4,56.7,29.68,WNW,283,5.0,10.0,94,0.01,,,0.05,VWS V14.01,2013-05-12 11:18:00,
2013-05-12 07:21:00,58.3,56.6,29.68,WNW,291,5.0,10.0,94,0.01,,,0.05,VWS V14.01,2013-05-12 11:21:00,
2013-05-12 07:24:00,58.1,56.1,29.68,WNW,283,6.0,14.0,93,0.01,,,0.05,VWS V14.01,2013-05-12 11:24:00,
2013-05-12 07:25:00,58.0,56.0,29.68,West,281,8.0,14.0,93,0.01,,,0.05,VWS V14.01,2013-05-12 11:25:00,
2013-05-12 07:27:00,58.0,56.0,29.68,West,281,3.0,14.0,93,0.01,,,0.05,VWS V14.01,2013-05-12 11:27:00,
2013-05-12 07:28:00,57.8,55.8,29.68,WNW,284,4.0,14.0,93,0.01,,,0.05,VWS V14.01,2013-05-12 11:28:00,
2013-05-12 07:30:00,57.6,55.6,29.68,NW,313,4.0,14.0,93,0.01,,,0.05,VWS V14.01,2013-05-12 11:30:00,
2013-05-12 07:31:00,57.6,55.6,29.68,NW,304,6.0,14.0,93,0.01,,,0.05,VWS V14.01,2013-05-12 11:31:00,
2013-05-12 07:33:00,57.6,55.6,29.68,WNW,286,6.0,14.0,93,0.01,,,0.05,VWS V14.01,2013-05-12 11:33:00,
2013-05-12 07:34:00,57.5,55.5,29.67,WNW,294,3.0,14.0,93,0.02,,,0.06,VWS V14.01,2013-05-12 11:34:00,
2013-05-12 07:36:00,57.5,55.5,29.67,NW,320,6.0,10.0,93,0.02,,,0.06,VWS V14.01,2013-05-12 11:36:00,
2013-05-12 07:38:00,57.5,55.5,29.67,WNW,298,3.0,10.0,93,0.02,,,0.06,VWS V14.01,2013-05-12 11:38:00,
2013-05-12 07:39:00,57.5,55.5,29.67,NW,312,3.0,10.0,93,0.02,,,0.06,VWS V14.01,2013-05-12 11:39:00,
2013-05-12 07:41:00,57.5,55.5,29.67,WNW,302,0.0,10.0,93,0.02,,,0.06,VWS V14.01,2013-05-12 11:41:00,
2013-05-12 07:44:00,57.3,55.3,29.67,WNW,284,8.0,10.0,93,0.02,,,0.06,VWS V14.01,2013-05-12 11:44:00,
2013-05-12 07:46:00,57.3,55.3,29.67,WNW,293,6.0,10.0,93,0.02,,,0.06,VWS V14.01,2013-05-12 11:46:00,
2013-05-12 07:47:00,57.3,55.3,29.67,WNW,292,0.0,10.0,93,0.02,,,0.06,VWS V14.01,2013-05-12 11:47:00,
2013-05-12 07:49:00,57.3,55.3,29.67,WNW,291,0.0,10.0,93,0.02,,,0.06,VWS V14.01,2013-05-12 11:49:00,
2013-05-12 07:50:00,57.3,55.3,29.67,WNW,290,4.0,10.0,93,0.02,,,0.06,VWS V14.01,2013-05-12 11:50:00,
2013-05-12 07:51:00,57.5,55.5,29.67,WNW,290,0.0,10.0,93,0.02,,,0.06,VWS V14.01,2013-05-12 11:51:00,
2013-05-12 07:53:00,57.5,55.5,29.67,WNW,296,3.0,10.0,93,0.02,,,0.06,VWS V14.01,2013-05-12 11:53:00,
2013-05-12 07:55:00,57.6,55.6,29.67,WNW,287,0.0,10.0,93,0.02,,,0.06,VWS V14.01,2013-05-12 11:55:00,
2013-05-12 07:56:00,57.6,55.6,29.67,WNW,282,3.0,10.0,93,0.02,,,0.06,VWS V14.01,2013-05-12 11:56:00,
2013-05-12 07:59:00,57.6,55.6,29.67,WNW,282,0.0,10.0,93,0.02,,,0.06,VWS V14.01,2013-05-12 11:59:00,
2013-05-12 08:00:00,57.8,55.8,29.67,West,281,2.0,10.0,93,0.02,,,0.06,VWS V14.01,2013-05-12 12:00:00,
2013-05-12 08:02:00,57.8,55.8,29.67,West,281,0.0,10.0,93,0.02,,,0.06,VWS V14.01,2013-05-12 12:02:00,
2013-05-12 08:04:00,57.8,55.8,29.67,West,281,2.0,10.0,93,0.02,,,0.06,VWS V14.01,2013-05-12 12:04:00,
2013-05-12 08:08:00,58.0,56.0,29.67,West,279,0.0,5.0,93,0.01,,,0.06,VWS V14.01,2013-05-12 12:08:00,
2013-05-12 08:09:00,58.1,56.1,29.67,West,279,0.0,5.0,93,0.01,,,0.06,VWS V14.01,2013-05-12 12:09:00,
2013-05-12 08:11:00,58.1,56.1,29.67,West,276,5.0,8.0,93,0.01,,,0.06,VWS V14.01,2013-05-12 12:11:00,
2013-05-12 08:12:00,58.1,56.1,29.67,West,279,4.0,8.0,93,0.01,,,0.06,VWS V14.01,2013-05-12 12:12:00,
2013-05-12 08:16:00,57.2,54.6,29.67,WNW,294,5.0,15.0,91,0.01,,,0.06,VWS V14.01,2013-05-12 12:16:00,
2013-05-12 08:17:00,57.0,54.4,29.67,West,275,8.0,15.0,91,0.01,,,0.06,VWS V14.01,2013-05-12 12:17:00,
2013-05-12 08:18:00,56.9,54.3,29.67,NW,315,11.0,15.0,91,0.01,,,0.06,VWS V14.01,2013-05-12 12:18:00,
2013-05-12 08:20:00,56.7,54.1,29.67,WNW,285,10.0,15.0,91,0.01,,,0.06,VWS V14.01,2013-05-12 12:20:00,
2013-05-12 08:21:00,56.7,54.1,29.67,West,277,7.0,15.0,91,0.01,,,0.06,VWS V14.01,2013-05-12 12:21:00,
2013-05-12 08:24:00,56.7,54.1,29.67,WNW,287,5.0,15.0,91,0.01,,,0.06,VWS V14.01,2013-05-12 12:24:00,
2013-05-12 08:25:00,56.7,54.1,29.67,WNW,288,6.0,15.0,91,0.01,,,0.06,VWS V14.01,2013-05-12 12:25:00,
2013-05-12 08:27:00,56.9,54.0,29.67,WNW,289,8.0,15.0,90,0.01,,,0.06,VWS V14.01,2013-05-12 12:27:00,
2013-05-12 08:29:00,57.0,54.1,29.67,WNW,296,10.0,15.0,90,0.01,,,0.06,VWS V14.01,2013-05-12 12:29:00,
2013-05-12 08:31:00,57.0,53.8,29.67,WNW,282,4.0,15.0,89,0.01,,,0.06,VWS V14.01,2013-05-12 12:31:00,
2013-05-12 08:33:00,57.0,53.5,29.67,WNW,288,7.0,15.0,88,0.01,,,0.06,VWS V14.01,2013-05-12 12:33:00,
2013-05-12 08:36:00,57.2,53.7,29.68,West,270,10.0,13.0,88,0.00,,,0.06,VWS V14.01,2013-05-12 12:36:00,
2013-05-12 08:38:00,57.2,53.4,29.68,West,278,7.0,13.0,87,0.00,,,0.06,VWS V14.01,2013-05-12 12:38:00,
2013-05-12 08:39:00,57.2,53.4,29.68,WNW,284,3.0,13.0,87,0.00,,,0.06,VWS V14.01,2013-05-12 12:39:00,
2013-05-12 08:42:00,57.2,52.7,29.68,NW,314,7.0,13.0,85,0.00,,,0.06,VWS V14.01,2013-05-12 12:42:00,
2013-05-12 08:45:00,57.2,52.7,29.68,WNW,292,3.0,13.0,85,0.00,,,0.06,VWS V14.01,2013-05-12 12:45:00,
2013-05-12 08:46:00,57.2,52.4,29.68,West,268,6.0,13.0,84,0.00,,,0.06,VWS V14.01,2013-05-12 12:46:00,
2013-05-12 08:47:00,57.2,52.4,29.68,West,276,3.0,13.0,84,0.00,,,0.06,VWS V14.01,2013-05-12 12:47:00,
2013-05-12 08:50:00,57.3,52.2,29.68,WNW,302,8.0,13.0,83,0.00,,,0.06,VWS V14.01,2013-05-12 12:50:00,
2013-05-12 08:51:00,57.3,51.9,29.68,WNW,298,7.0,13.0,82,0.00,,,0.06,VWS V14.01,2013-05-12 12:51:00,
2013-05-12 08:52:00,57.5,52.1,29.68,WNW,290,4.0,13.0,82,0.00,,,0.06,VWS V14.01,2013-05-12 12:52:00,
2013-05-12 08:53:00,57.5,52.1,29.68,West,273,5.0,13.0,82,0.00,,,0.06,VWS V14.01,2013-05-12 12:53:00,
2013-05-12 08:57:00,57.6,51.5,29.68,WNW,293,2.0,13.0,80,0.00,,,0.06,VWS V14.01,2013-05-12 12:57:00,
2013-05-12 08:58:00,57.6,51.5,29.68,WNW,284,4.0,13.0,80,0.00,,,0.06,VWS V14.01,2013-05-12 12:58:00,
2013-05-12 09:02:00,57.8,51.3,29.68,WNW,291,3.0,13.0,79,0.00,,,0.06,VWS V14.01,2013-05-12 13:02:00,
2013-05-12 09:03:00,58.0,51.2,29.68,West,281,5.0,13.0,78,0.00,,,0.06,VWS V14.01,2013-05-12 13:03:00,
2013-05-12 09:04:00,58.3,51.5,29.68,West,277,6.0,13.0,78,0.00,,,0.06,VWS V14.01,2013-05-12 13:04:00,
2013-05-12 09:07:00,58.7,51.2,29.68,WNW,292,6.0,10.0,76,0.00,,,0.06,VWS V14.01,2013-05-12 13:07:00,
2013-05-12 09:09:00,59.0,51.1,29.68,West,281,3.0,10.0,75,0.00,,,0.06,VWS V14.01,2013-05-12 13:09:00,
2013-05-12 09:10:00,59.3,51.0,29.68,West,261,7.0,10.0,74,0.00,,,0.06,VWS V14.01,2013-05-12 13:10:00,
2013-05-12 09:13:00,60.1,51.1,29.68,West,277,4.0,10.0,72,0.00,,,0.06,VWS V14.01,2013-05-12 13:13:00,
2013-05-12 09:15:00,60.4,51.0,29.68,WNW,294,7.0,10.0,71,0.00,,,0.06,VWS V14.01,2013-05-12 13:15:00,
2013-05-12 09:18:00,60.4,49.8,29.68,West,261,5.0,12.0,68,0.00,,,0.06,VWS V14.01,2013-05-12 13:18:00,
2013-05-12 09:19:00,60.5,49.9,29.67,WNW,295,8.0,12.0,68,0.00,,,0.06,VWS V14.01,2013-05-12 13:19:00,
2013-05-12 09:23:00,61.2,50.2,29.67,West,264,10.0,12.0,67,0.00,,,0.06,VWS V14.01,2013-05-12 13:23:00,
2013-05-12 09:24:00,61.3,50.3,29.67,WNW,292,8.0,12.0,67,0.00,,,0.06,VWS V14.01,2013-05-12 13:24:00,
2013-05-12 09:25:00,61.3,49.9,29.67,West,270,11.0,12.0,66,0.00,,,0.06,VWS V14.01,2013-05-12 13:25:00,
2013-05-12 09:27:00,61.6,49.7,29.67,WNW,297,7.0,12.0,65,0.00,,,0.06,VWS V14.01,2013-05-12 13:27:00,
2013-05-12 09:28:00,61.8,50.7,29.67,WNW,289,8.0,12.0,67,0.00,,,0.06,VWS V14.01,2013-05-12 13:28:00,
2013-05-12 09:29:00,62.0,50.5,29.67,NW,315,4.0,14.0,66,0.00,,,0.06,VWS V14.01,2013-05-12 13:29:00,
2013-05-12 09:30:00,62.0,50.1,29.67,West,275,4.0,14.0,65,0.00,,,0.06,VWS V14.01,2013-05-12 13:30:00,
2013-05-12 09:33:00,62.1,49.4,29.67,West,271,6.0,14.0,63,0.00,,,0.06,VWS V14.01,2013-05-12 13:33:00,
2013-05-12 09:34:00,62.3,50.8,29.67,West,269,7.0,14.0,66,0.00,,,0.06,VWS V14.01,2013-05-12 13:34:00,
2013-05-12 09:35:00,62.3,50.0,29.67,WNW,292,8.0,11.0,64,0.00,,,0.06,VWS V14.01,2013-05-12 13:35:00,
2013-05-12 09:36:00,62.4,49.7,29.67,West,275,5.0,11.0,63,0.00,,,0.06,VWS V14.01,2013-05-12 13:36:00,
2013-05-12 09:37:00,62.4,49.7,29.67,NW,305,9.0,14.0,63,0.00,,,0.06,VWS V14.01,2013-05-12 13:37:00,
2013-05-12 09:40:00,62.6,49.4,29.67,West,261,12.0,14.0,62,0.00,,,0.06,VWS V14.01,2013-05-12 13:40:00,
2013-05-12 09:42:00,62.4,47.9,29.67,WSW,254,9.0,14.0,59,0.00,,,0.06,VWS V14.01,2013-05-12 13:42:00,
2013-05-12 09:43:00,62.6,49.0,29.67,WNW,288,7.0,14.0,61,0.00,,,0.06,VWS V14.01,2013-05-12 13:43:00,
2013-05-12 09:45:00,62.9,49.7,29.67,West,278,7.0,14.0,62,0.00,,,0.06,VWS V14.01,2013-05-12 13:45:00,
2013-05-12 09:47:00,63.5,50.3,29.67,West,278,10.0,14.0,62,0.00,,,0.06,VWS V14.01,2013-05-12 13:47:00,
2013-05-12 09:48:00,63.7,48.7,29.67,WNW,300,5.0,14.0,58,0.00,,,0.06,VWS V14.01,2013-05-12 13:48:00,
2013-05-12 09:49:00,63.7,47.7,29.67,WNW,294,6.0,14.0,56,0.00,,,0.06,VWS V14.01,2013-05-12 13:49:00,
2013-05-12 09:50:00,63.9,48.8,29.67,WNW,297,8.0,14.0,58,0.00,,,0.06,VWS V14.01,2013-05-12 13:50:00,
2013-05-12 09:54:00,64.0,48.5,29.67,WSW,258,10.0,15.0,57,0.00,,,0.06,VWS V14.01,2013-05-12 13:54:00,
2013-05-12 09:55:00,64.2,47.7,29.67,WNW,289,7.0,15.0,55,0.00,,,0.06,VWS V14.01,2013-05-12 13:55:00,
2013-05-12 09:56:00,64.0,48.5,29.67,WNW,295,0.0,15.0,57,0.00,,,0.06,VWS V14.01,2013-05-12 13:56:00,
2013-05-12 09:59:00,63.9,47.9,29.67,NW,308,11.0,15.0,56,0.00,,,0.06,VWS V14.01,2013-05-12 13:59:00,
2013-05-12 10:00:00,63.7,47.2,29.67,WNW,302,5.0,15.0,55,0.00,,,0.06,VWS V14.01,2013-05-12 14:00:00,
2013-05-12 10:02:00,63.4,47.9,29.67,NW,315,13.0,18.0,57,0.00,,,0.06,VWS V14.01,2013-05-12 14:02:00,
2013-05-12 10:04:00,63.2,47.7,29.66,NW,312,9.0,18.0,57,0.00,,,0.06,VWS V14.01,2013-05-12 14:04:00,
2013-05-12 10:05:00,63.2,47.3,29.66,NW,311,6.0,11.0,56,0.00,,,0.06,VWS V14.01,2013-05-12 14:05:00,
2013-05-12 10:07:00,63.2,46.8,29.66,West,281,8.0,17.0,55,0.00,,,0.06,VWS V14.01,2013-05-12 14:07:00,
2013-05-12 10:08:00,63.2,47.3,29.66,WNW,296,4.0,17.0,56,0.00,,,0.06,VWS V14.01,2013-05-12 14:08:00,
2013-05-12 10:09:00,63.4,47.9,29.66,NW,310,10.0,17.0,57,0.00,,,0.06,VWS V14.01,2013-05-12 14:09:00,
2013-05-12 10:12:00,63.4,47.9,29.66,NW,317,9.0,17.0,57,0.00,,,0.06,VWS V14.01,2013-05-12 14:12:00,
2013-05-12 10:13:00,63.4,47.9,29.66,WNW,292,16.0,17.0,57,0.00,,,0.06,VWS V14.01,2013-05-12 14:13:00,
2013-05-12 10:14:00,63.5,48.0,29.66,West,275,11.0,17.0,57,0.00,,,0.06,VWS V14.01,2013-05-12 14:14:00,
2013-05-12 10:16:00,63.7,47.7,29.66,WNW,285,14.0,18.0,56,0.00,,,0.06,VWS V14.01,2013-05-12 14:16:00,
2013-05-12 10:17:00,63.9,47.0,29.66,NW,312,9.0,18.0,54,0.00,,,0.06,VWS V14.01,2013-05-12 14:17:00,
2013-05-12 10:18:00,64.0,47.5,29.66,WNW,293,7.0,18.0,55,0.00,,,0.06,VWS V14.01,2013-05-12 14:18:00,
2013-05-12 10:21:00,64.7,48.2,29.66,NW,311,12.0,18.0,55,0.00,,,0.06,VWS V14.01,2013-05-12 14:21:00,
2013-05-12 10:23:00,65.0,47.0,29.66,WNW,284,14.0,18.0,52,0.00,,,0.06,VWS V14.01,2013-05-12 14:23:00,
2013-05-12 10:26:00,65.0,47.5,29.66,West,275,7.0,20.0,53,0.00,,,0.06,VWS V14.01,2013-05-12 14:26:00,
2013-05-12 10:27:00,65.3,49.2,29.66,WNW,290,8.0,20.0,56,0.00,,,0.06,VWS V14.01,2013-05-12 14:27:00,
2013-05-12 10:29:00,65.8,47.7,29.66,WNW,294,4.0,20.0,52,0.00,,,0.06,VWS V14.01,2013-05-12 14:29:00,
2013-05-12 10:32:00,66.0,47.4,29.66,WNW,288,9.0,20.0,51,0.00,,,0.06,VWS V14.01,2013-05-12 14:32:00,
2013-05-12 10:33:00,66.0,47.9,29.66,NW,313,7.0,20.0,52,0.00,,,0.06,VWS V14.01,2013-05-12 14:33:00,
2013-05-12 10:34:00,66.0,47.9,29.66,WNW,284,6.0,20.0,52,0.00,,,0.06,VWS V14.01,2013-05-12 14:34:00,
2013-05-12 10:35:00,66.1,48.5,29.66,West,271,8.0,15.0,53,0.00,,,0.06,VWS V14.01,2013-05-12 14:35:00,
2013-05-12 10:38:00,66.4,47.7,29.66,West,268,6.0,15.0,51,0.00,,,0.06,VWS V14.01,2013-05-12 14:38:00,
2013-05-12 10:40:00,66.4,48.8,29.66,WNW,289,6.0,16.0,53,0.00,,,0.06,VWS V14.01,2013-05-12 14:40:00,
2013-05-12 10:44:00,66.3,48.2,29.66,WNW,287,12.0,18.0,52,0.00,,,0.06,VWS V14.01,2013-05-12 14:44:00,
2013-05-12 10:45:00,66.3,48.2,29.66,West,273,5.0,18.0,52,0.00,,,0.06,VWS V14.01,2013-05-12 14:45:00,
2013-05-12 10:46:00,66.3,49.2,29.66,WNW,298,9.0,18.0,54,0.00,,,0.06,VWS V14.01,2013-05-12 14:46:00,
2013-05-12 10:49:00,66.3,49.2,29.66,West,261,10.0,18.0,54,0.00,,,0.06,VWS V14.01,2013-05-12 14:49:00,
2013-05-12 10:50:00,66.3,49.2,29.66,West,269,10.0,18.0,54,0.00,,,0.06,VWS V14.01,2013-05-12 14:50:00,
2013-05-12 10:51:00,66.3,48.7,29.66,WNW,288,16.0,18.0,53,0.00,,,0.06,VWS V14.01,2013-05-12 14:51:00,
2013-05-12 10:52:00,66.1,48.0,29.66,West,277,10.0,18.0,52,0.00,,,0.06,VWS V14.01,2013-05-12 14:52:00,
2013-05-12 10:54:00,66.1,48.5,29.66,SW,232,7.0,19.0,53,0.00,,,0.06,VWS V14.01,2013-05-12 14:54:00,
2013-05-12 10:55:00,66.3,49.2,29.66,WNW,283,9.0,19.0,54,0.00,,,0.06,VWS V14.01,2013-05-12 14:55:00,
2013-05-12 10:57:00,66.6,49.0,29.66,WNW,284,12.0,19.0,53,0.00,,,0.06,VWS V14.01,2013-05-12 14:57:00,
2013-05-12 10:59:00,66.9,48.7,29.66,WNW,288,4.0,19.0,52,0.00,,,0.06,VWS V14.01,2013-05-12 14:59:00,
2013-05-12 11:00:00,66.9,48.7,29.66,West,277,8.0,19.0,52,0.00,,,0.06,VWS V14.01,2013-05-12 15:00:00,
2013-05-12 11:01:00,67.1,48.4,29.66,WSW,252,13.0,19.0,51,0.00,,,0.06,VWS V14.01,2013-05-12 15:01:00,
2013-05-12 11:04:00,67.1,48.9,29.67,WNW,299,5.0,20.0,52,0.00,,,0.06,VWS V14.01,2013-05-12 15:04:00,
2013-05-12 11:05:00,66.9,48.2,29.67,WNW,296,6.0,19.0,51,0.00,,,0.06,VWS V14.01,2013-05-12 15:05:00,
2013-05-12 11:06:00,66.8,48.1,29.67,West,275,14.0,19.0,51,0.00,,,0.06,VWS V14.01,2013-05-12 15:06:00,
2013-05-12 11:10:00,66.6,48.4,29.67,WNW,284,11.0,21.0,52,0.00,,,0.06,VWS V14.01,2013-05-12 15:10:00,
2013-05-12 11:11:00,66.3,47.7,29.67,WNW,296,20.0,21.0,51,0.00,,,0.06,VWS V14.01,2013-05-12 15:11:00,
2013-05-12 11:13:00,66.1,50.0,29.67,WNW,298,5.0,21.0,56,0.00,,,0.06,VWS V14.01,2013-05-12 15:13:00,
2013-05-12 11:16:00,66.8,49.1,29.67,WNW,284,6.0,21.0,53,0.00,,,0.06,VWS V14.01,2013-05-12 15:16:00,
2013-05-12 11:18:00,66.9,49.2,29.67,West,265,8.0,21.0,53,0.00,,,0.06,VWS V14.01,2013-05-12 15:18:00,
2013-05-12 11:19:00,66.9,49.2,29.67,West,259,14.0,21.0,53,0.00,,,0.06,VWS V14.01,2013-05-12 15:19:00,
2013-05-12 11:20:00,66.9,48.2,29.67,WNW,293,7.0,21.0,51,0.00,,,0.06,VWS V14.01,2013-05-12 15:20:00,
2013-05-12 11:21:00,66.9,48.7,29.67,West,277,11.0,21.0,52,0.00,,,0.06,VWS V14.01,2013-05-12 15:21:00,
2013-05-12 11:25:00,67.4,48.7,29.67,WNW,296,18.0,22.0,51,0.00,,,0.06,VWS V14.01,2013-05-12 15:25:00,
2013-05-12 11:26:00,67.4,47.6,29.67,West,276,6.0,22.0,49,0.00,,,0.06,VWS V14.01,2013-05-12 15:26:00,
2013-05-12 11:27:00,67.4,48.7,29.67,NW,313,12.0,22.0,51,0.00,,,0.06,VWS V14.01,2013-05-12 15:27:00,
2013-05-12 11:28:00,67.4,48.1,29.67,WNW,283,10.0,22.0,50,0.00,,,0.06,VWS V14.01,2013-05-12 15:28:00,
2013-05-12 11:29:00,67.3,48.0,29.67,WNW,294,9.0,22.0,50,0.00,,,0.06,VWS V14.01,2013-05-12 15:29:00,
2013-05-12 11:31:00,67.1,48.4,29.67,WNW,294,7.0,22.0,51,0.00,,,0.06,VWS V14.01,2013-05-12 15:31:00,
2013-05-12 11:32:00,67.1,48.4,29.67,NW,306,13.0,22.0,51,0.00,,,0.06,VWS V14.01,2013-05-12 15:32:00,
2013-05-12 11:33:00,66.9,48.2,29.67,West,273,9.0,22.0,51,0.00,,,0.06,VWS V14.01,2013-05-12 15:33:00,
2013-05-12 11:34:00,66.9,47.1,29.67,WSW,251,7.0,22.0,49,0.00,,,0.06,VWS V14.01,2013-05-12 15:34:00,
2013-05-12 11:38:00,67.1,47.9,29.67,WSW,257,16.0,25.0,50,0.00,,,0.06,VWS V14.01,2013-05-12 15:38:00,
2013-05-12 11:39:00,67.1,48.4,29.67,WNW,286,13.0,25.0,51,0.00,,,0.06,VWS V14.01,2013-05-12 15:39:00,
2013-05-12 11:40:00,67.1,48.9,29.67,West,265,6.0,25.0,52,0.00,,,0.06,VWS V14.01,2013-05-12 15:40:00,
2013-05-12 11:43:00,68.1,49.3,29.67,SW,235,14.0,25.0,51,0.00,,,0.06,VWS V14.01,2013-05-12 15:43:00,
2013-05-12 11:45:00,68.6,49.2,29.67,West,265,17.0,25.0,50,0.00,,,0.06,VWS V14.01,2013-05-12 15:45:00,
2013-05-12 11:47:00,68.6,48.7,29.67,West,263,17.0,25.0,49,0.00,,,0.06,VWS V14.01,2013-05-12 15:47:00,
2013-05-12 11:48:00,68.6,47.6,29.66,West,273,17.0,25.0,47,0.00,,,0.06,VWS V14.01,2013-05-12 15:48:00,
2013-05-12 11:51:00,68.4,48.5,29.66,West,266,4.0,25.0,49,0.00,,,0.06,VWS V14.01,2013-05-12 15:51:00,
2013-05-12 11:53:00,68.3,49.5,29.66,WNW,283,13.0,25.0,51,0.00,,,0.06,VWS V14.01,2013-05-12 15:53:00,
2013-05-12 11:54:00,68.3,48.4,29.66,NW,309,18.0,25.0,49,0.00,,,0.06,VWS V14.01,2013-05-12 15:54:00,
2013-05-12 11:58:00,68.1,47.1,29.66,WNW,287,10.0,25.0,47,0.00,,,0.06,VWS V14.01,2013-05-12 15:58:00,
2013-05-12 11:59:00,67.9,46.4,29.66,West,281,12.0,25.0,46,0.00,,,0.06,VWS V14.01,2013-05-12 15:59:00,
2013-05-12 12:00:00,67.8,46.3,29.66,NNW,336,10.0,25.0,46,0.00,,,0.06,VWS V14.01,2013-05-12 16:00:00,
2013-05-12 12:02:00,67.4,46.5,29.66,West,279,13.0,25.0,47,0.00,,,0.06,VWS V14.01,2013-05-12 16:02:00,
2013-05-12 12:04:00,67.4,47.0,29.67,West,259,5.0,5.0,48,0.00,,,0.06,VWS V14.01,2013-05-12 16:04:00,
2013-05-12 12:08:00,68.1,47.1,29.67,West,275,8.0,19.0,47,0.00,,,0.06,VWS V14.01,2013-05-12 16:08:00,
2013-05-12 12:09:00,68.3,47.9,29.67,West,265,9.0,19.0,48,0.00,,,0.06,VWS V14.01,2013-05-12 16:09:00,
2013-05-12 12:11:00,68.8,48.3,29.67,West,263,9.0,19.0,48,0.00,,,0.06,VWS V14.01,2013-05-12 16:11:00,
2013-05-12 12:12:00,68.9,48.4,29.67,WNW,287,9.0,19.0,48,0.00,,,0.06,VWS V14.01,2013-05-12 16:12:00,
2013-05-12 12:13:00,69.1,48.6,29.67,WSW,248,16.0,23.0,48,0.00,,,0.06,VWS V14.01,2013-05-12 16:13:00,
2013-05-12 12:16:00,69.1,46.9,29.67,West,277,14.0,23.0,45,0.00,,,0.06,VWS V14.01,2013-05-12 16:16:00,
2013-05-12 12:17:00,69.1,46.9,29.67,WSW,257,15.0,23.0,45,0.00,,,0.06,VWS V14.01,2013-05-12 16:17:00,
2013-05-12 12:18:00,68.9,46.7,29.66,West,261,7.0,23.0,45,0.00,,,0.06,VWS V14.01,2013-05-12 16:18:00,
2013-05-12 12:20:00,69.1,47.5,29.66,West,281,12.0,23.0,46,0.00,,,0.06,VWS V14.01,2013-05-12 16:20:00,
2013-05-12 12:22:00,69.3,48.2,29.66,SW,216,13.0,23.0,47,0.00,,,0.06,VWS V14.01,2013-05-12 16:22:00,
2013-05-12 12:24:00,69.4,47.7,29.66,WSW,242,12.0,23.0,46,0.00,,,0.06,VWS V14.01,2013-05-12 16:24:00,
2013-05-12 12:25:00,69.4,47.2,29.66,West,281,21.0,23.0,45,0.00,,,0.06,VWS V14.01,2013-05-12 16:25:00,
2013-05-12 12:27:00,69.1,46.9,29.66,WSW,252,12.0,23.0,45,0.00,,,0.06,VWS V14.01,2013-05-12 16:27:00,
2013-05-12 12:29:00,69.1,46.9,29.66,WNW,296,13.0,23.0,45,0.00,,,0.06,VWS V14.01,2013-05-12 16:29:00,
2013-05-12 12:31:00,69.1,46.9,29.66,West,263,12.0,23.0,45,0.00,,,0.06,VWS V14.01,2013-05-12 16:31:00,
2013-05-12 12:34:00,69.1,47.5,29.66,WNW,302,9.0,12.0,46,0.00,,,0.06,VWS V14.01,2013-05-12 16:34:00,
2013-05-12 12:36:00,69.1,46.9,29.66,West,263,10.0,16.0,45,0.00,,,0.06,VWS V14.01,2013-05-12 16:36:00,
2013-05-12 12:37:00,69.4,46.6,29.66,West,259,13.0,16.0,44,0.00,,,0.06,VWS V14.01,2013-05-12 16:37:00,
2013-05-12 12:38:00,69.4,47.2,29.66,WNW,299,6.0,16.0,45,0.00,,,0.06,VWS V14.01,2013-05-12 16:38:00,
2013-05-12 12:39:00,69.4,46.6,29.66,West,270,11.0,16.0,44,0.00,,,0.06,VWS V14.01,2013-05-12 16:39:00,
2013-05-12 12:43:00,68.6,46.4,29.66,West,272,17.0,20.0,45,0.00,,,0.06,VWS V14.01,2013-05-12 16:43:00,
2013-05-12 12:44:00,68.4,46.2,29.66,WSW,248,18.0,20.0,45,0.00,,,0.06,VWS V14.01,2013-05-12 16:44:00,
2013-05-12 12:47:00,68.1,46.6,29.66,WNW,298,10.0,20.0,46,0.00,,,0.06,VWS V14.01,2013-05-12 16:47:00,
2013-05-12 12:48:00,68.1,46.6,29.66,West,277,6.0,20.0,46,0.00,,,0.06,VWS V14.01,2013-05-12 16:48:00,
2013-05-12 12:50:00,68.3,46.2,29.66,WNW,283,12.0,20.0,45,0.00,,,0.06,VWS V14.01,2013-05-12 16:50:00,
2013-05-12 12:51:00,68.4,46.2,29.66,WSW,238,12.0,20.0,45,0.00,,,0.06,VWS V14.01,2013-05-12 16:51:00,
2013-05-12 12:53:00,68.8,46.0,29.66,SW,221,10.0,20.0,44,0.00,,,0.06,VWS V14.01,2013-05-12 16:53:00,
2013-05-12 12:54:00,68.8,46.0,29.66,West,279,14.0,20.0,44,0.00,,,0.06,VWS V14.01,2013-05-12 16:54:00,
2013-05-12 12:56:00,68.9,46.1,29.66,WNW,294,9.0,23.0,44,0.00,,,0.06,VWS V14.01,2013-05-12 16:56:00,
2013-05-12 12:57:00,69.1,46.3,29.66,SW,219,7.0,23.0,44,0.00,,,0.06,VWS V14.01,2013-05-12 16:57:00,
2013-05-12 13:00:00,69.1,45.1,29.66,WSW,239,21.0,24.0,42,0.00,,,0.06,VWS V14.01,2013-05-12 17:00:00,
2013-05-12 13:01:00,69.1,45.1,29.66,WSW,246,19.0,24.0,42,0.00,,,0.06,VWS V14.01,2013-05-12 17:01:00,
2013-05-12 13:02:00,68.9,44.9,29.66,West,263,5.0,24.0,42,0.00,,,0.06,VWS V14.01,2013-05-12 17:02:00,
2013-05-12 13:03:00,68.8,45.4,29.66,West,259,4.0,24.0,43,0.00,,,0.06,VWS V14.01,2013-05-12 17:03:00,
2013-05-12 13:06:00,69.1,45.7,29.66,West,274,17.0,21.0,43,0.00,,,0.06,VWS V14.01,2013-05-12 17:06:00,
2013-05-12 13:08:00,69.3,45.9,29.66,WSW,255,10.0,21.0,43,0.00,,,0.06,VWS V14.01,2013-05-12 17:08:00,
2013-05-12 13:12:00,69.8,45.1,29.66,West,261,17.0,23.0,41,0.00,,,0.06,VWS V14.01,2013-05-12 17:12:00,
2013-05-12 13:13:00,69.9,44.5,29.66,West,271,14.0,24.0,40,0.00,,,0.06,VWS V14.01,2013-05-12 17:13:00,
2013-05-12 13:15:00,69.9,43.8,29.66,WSW,253,17.0,24.0,39,0.00,,,0.06,VWS V14.01,2013-05-12 17:15:00,
2013-05-12 13:16:00,69.9,44.5,29.66,West,267,14.0,24.0,40,0.00,,,0.06,VWS V14.01,2013-05-12 17:16:00,
2013-05-12 13:19:00,69.9,43.8,29.66,West,271,6.0,24.0,39,0.00,,,0.06,VWS V14.01,2013-05-12 17:19:00,
2013-05-12 13:20:00,70.1,44.7,29.66,West,281,16.0,24.0,40,0.00,,,0.06,VWS V14.01,2013-05-12 17:20:00,
2013-05-12 13:21:00,70.1,44.0,29.66,SW,225,14.0,24.0,39,0.00,,,0.06,VWS V14.01,2013-05-12 17:21:00,
2013-05-12 13:22:00,70.1,44.0,29.66,SW,233,19.0,24.0,39,0.00,,,0.06,VWS V14.01,2013-05-12 17:22:00,
2013-05-12 13:25:00,69.9,43.8,29.66,WSW,256,7.0,24.0,39,0.00,,,0.06,VWS V14.01,2013-05-12 17:25:00,
2013-05-12 13:27:00,69.4,44.1,29.66,WNW,288,12.0,24.0,40,0.00,,,0.06,VWS V14.01,2013-05-12 17:27:00,
2013-05-12 13:28:00,69.3,44.0,29.66,WNW,296,6.0,24.0,40,0.00,,,0.06,VWS V14.01,2013-05-12 17:28:00,
2013-05-12 13:29:00,69.1,43.8,29.66,WNW,286,9.0,24.0,40,0.00,,,0.06,VWS V14.01,2013-05-12 17:29:00,
2013-05-12 13:30:00,68.8,44.8,29.66,NNW,341,13.0,24.0,42,0.00,,,0.06,VWS V14.01,2013-05-12 17:30:00,
2013-05-12 13:33:00,68.4,43.8,29.66,WNW,292,12.0,24.0,41,0.00,,,0.06,VWS V14.01,2013-05-12 17:33:00,
2013-05-12 13:34:00,68.6,43.3,29.67,West,273,9.0,24.0,40,0.00,,,0.06,VWS V14.01,2013-05-12 17:34:00,
2013-05-12 13:36:00,69.3,44.6,29.67,WSW,254,8.0,16.0,41,0.00,,,0.06,VWS V14.01,2013-05-12 17:36:00,
2013-05-12 13:38:00,69.8,43.8,29.67,NW,304,11.0,16.0,39,0.00,,,0.06,VWS V14.01,2013-05-12 17:38:00,
2013-05-12 13:40:00,69.9,43.8,29.67,WSW,258,13.0,21.0,39,0.00,,,0.06,VWS V14.01,2013-05-12 17:40:00,
2013-05-12 13:41:00,69.8,43.1,29.67,WSW,238,21.0,21.0,38,0.00,,,0.06,VWS V14.01,2013-05-12 17:41:00,
2013-05-12 13:42:00,69.6,42.2,29.67,WSW,250,11.0,21.0,37,0.00,,,0.06,VWS V14.01,2013-05-12 17:42:00,
2013-05-12 13:45:00,69.4,42.7,29.67,West,267,6.0,21.0,38,0.00,,,0.06,VWS V14.01,2013-05-12 17:45:00,
2013-05-12 13:46:00,69.4,42.7,29.67,WSW,254,14.0,21.0,38,0.00,,,0.06,VWS V14.01,2013-05-12 17:46:00,
2013-05-12 13:47:00,69.6,43.6,29.67,NW,316,10.0,21.0,39,0.00,,,0.06,VWS V14.01,2013-05-12 17:47:00,
2013-05-12 13:49:00,69.9,43.2,29.66,SW,231,11.0,21.0,38,0.00,,,0.06,VWS V14.01,2013-05-12 17:49:00,
2013-05-12 13:52:00,69.9,41.8,29.66,West,281,14.0,21.0,36,0.00,,,0.06,VWS V14.01,2013-05-12 17:52:00,
2013-05-12 13:53:00,69.9,41.8,29.66,West,265,4.0,21.0,36,0.00,,,0.06,VWS V14.01,2013-05-12 17:53:00,
2013-05-12 13:54:00,70.1,43.3,29.66,West,269,16.0,21.0,38,0.00,,,0.06,VWS V14.01,2013-05-12 17:54:00,
2013-05-12 13:55:00,69.9,41.8,29.66,West,273,12.0,21.0,36,0.00,,,0.06,VWS V14.01,2013-05-12 17:55:00,
2013-05-12 13:58:00,69.8,41.7,29.66,West,265,15.0,22.0,36,0.00,,,0.06,VWS V14.01,2013-05-12 17:58:00,
2013-05-12 13:59:00,69.8,42.4,29.66,West,269,16.0,22.0,37,0.00,,,0.06,VWS V14.01,2013-05-12 17:59:00,
2013-05-12 14:00:00,69.8,43.1,29.66,West,275,13.0,22.0,38,0.00,,,0.06,VWS V14.01,2013-05-12 18:00:00,
2013-05-12 14:01:00,69.8,42.4,29.66,WSW,246,14.0,22.0,37,0.00,,,0.06,VWS V14.01,2013-05-12 18:01:00,
2013-05-12 14:05:00,69.6,42.2,29.66,SW,233,19.0,22.0,37,0.00,,,0.06,VWS V14.01,2013-05-12 18:05:00,
2013-05-12 14:07:00,69.4,41.3,29.66,SW,226,16.0,22.0,36,0.00,,,0.06,VWS V14.01,2013-05-12 18:07:00,
2013-05-12 14:08:00,69.4,40.6,29.66,WNW,290,16.0,22.0,35,0.00,,,0.06,VWS V14.01,2013-05-12 18:08:00,
2013-05-12 14:10:00,69.1,40.3,29.66,West,276,17.0,22.0,35,0.00,,,0.06,VWS V14.01,2013-05-12 18:10:00,
2013-05-12 14:11:00,69.1,40.3,29.66,West,274,15.0,22.0,35,0.00,,,0.06,VWS V14.01,2013-05-12 18:11:00,
2013-05-12 14:12:00,69.1,40.3,29.66,West,277,17.0,22.0,35,0.00,,,0.06,VWS V14.01,2013-05-12 18:12:00,
2013-05-12 14:14:00,68.9,39.4,29.66,West,275,11.0,22.0,34,0.00,,,0.06,VWS V14.01,2013-05-12 18:14:00,
2013-05-12 14:16:00,68.9,39.4,29.66,West,271,21.0,22.0,34,0.00,,,0.06,VWS V14.01,2013-05-12 18:16:00,
2013-05-12 14:18:00,68.4,39.0,29.66,WNW,291,13.0,28.0,34,0.00,,,0.06,VWS V14.01,2013-05-12 18:18:00,
2013-05-12 14:19:00,68.4,39.0,29.66,WNW,298,16.0,28.0,34,0.00,,,0.06,VWS V14.01,2013-05-12 18:19:00,
2013-05-12 14:21:00,68.3,40.3,29.66,NW,304,11.0,28.0,36,0.00,,,0.06,VWS V14.01,2013-05-12 18:21:00,
2013-05-12 14:24:00,68.4,38.2,29.66,West,265,12.0,28.0,33,0.00,,,0.06,VWS V14.01,2013-05-12 18:24:00,
2013-05-12 14:25:00,68.4,38.2,29.66,NW,317,14.0,28.0,33,0.00,,,0.06,VWS V14.01,2013-05-12 18:25:00,
2013-05-12 14:29:00,68.6,37.6,29.66,WNW,293,8.0,28.0,32,0.00,,,0.06,VWS V14.01,2013-05-12 18:29:00,
2013-05-12 14:31:00,68.6,38.4,29.66,West,269,10.0,28.0,33,0.00,,,0.06,VWS V14.01,2013-05-12 18:31:00,
2013-05-12 14:33:00,68.6,38.4,29.66,West,271,15.0,28.0,33,0.00,,,0.06,VWS V14.01,2013-05-12 18:33:00,
2013-05-12 14:34:00,68.6,39.1,29.66,West,263,16.0,28.0,34,0.00,,,0.06,VWS V14.01,2013-05-12 18:34:00,
2013-05-12 14:35:00,68.6,38.4,29.66,West,275,14.0,19.0,33,0.00,,,0.06,VWS V14.01,2013-05-12 18:35:00,
2013-05-12 14:38:00,68.4,37.4,29.66,WNW,284,13.0,24.0,32,0.00,,,0.06,VWS V14.01,2013-05-12 18:38:00,
2013-05-12 14:39:00,68.4,36.6,29.66,WNW,288,9.0,24.0,31,0.00,,,0.06,VWS V14.01,2013-05-12 18:39:00,
2013-05-12 14:41:00,68.4,36.6,29.66,WNW,285,10.0,24.0,31,0.00,,,0.06,VWS V14.01,2013-05-12 18:41:00,
2013-05-12 14:44:00,68.6,35.1,29.66,WNW,286,9.0,24.0,29,0.00,,,0.06,VWS V14.01,2013-05-12 18:44:00,
2013-05-12 14:45:00,68.6,36.0,29.66,West,263,14.0,24.0,30,0.00,,,0.06,VWS V14.01,2013-05-12 18:45:00,
2013-05-12 14:47:00,68.8,37.8,29.66,WNW,294,10.0,24.0,32,0.00,,,0.06,VWS V14.01,2013-05-12 18:47:00,
2013-05-12 14:49:00,68.9,36.2,29.66,West,271,9.0,24.0,30,0.00,,,0.06,VWS V14.01,2013-05-12 18:49:00,
2013-05-12 14:52:00,68.9,35.4,29.66,WNW,283,9.0,24.0,29,0.00,,,0.06,VWS V14.01,2013-05-12 18:52:00,
2013-05-12 14:53:00,69.1,36.4,29.66,West,267,8.0,24.0,30,0.00,,,0.06,VWS V14.01,2013-05-12 18:53:00,
2013-05-12 14:55:00,68.9,34.5,29.66,WNW,284,13.0,24.0,28,0.00,,,0.06,VWS V14.01,2013-05-12 18:55:00,
2013-05-12 14:56:00,68.9,33.6,29.66,WSW,250,13.0,24.0,27,0.00,,,0.06,VWS V14.01,2013-05-12 18:56:00,
2013-05-12 14:57:00,68.8,33.5,29.66,NW,310,14.0,24.0,27,0.00,,,0.06,VWS V14.01,2013-05-12 18:57:00,
2013-05-12 15:00:00,68.4,33.1,29.66,WNW,291,15.0,24.0,27,0.00,,,0.06,VWS V14.01,2013-05-12 19:00:00,
2013-05-12 15:02:00,68.4,34.0,29.66,West,273,14.0,24.0,28,0.00,,,0.06,VWS V14.01,2013-05-12 19:02:00,
2013-05-12 15:03:00,68.4,33.1,29.66,West,259,20.0,24.0,27,0.00,,,0.06,VWS V14.01,2013-05-12 19:03:00,
2013-05-12 15:04:00,68.3,33.1,29.66,West,278,16.0,24.0,27,0.00,,,0.06,VWS V14.01,2013-05-12 19:04:00,
2013-05-12 15:08:00,68.3,33.1,29.66,WNW,286,11.0,22.0,27,0.00,,,0.06,VWS V14.01,2013-05-12 19:08:00,
2013-05-12 15:12:00,68.4,34.0,29.66,West,281,13.0,25.0,28,0.00,,,0.06,VWS V14.01,2013-05-12 19:12:00,
2013-05-12 15:13:00,68.4,34.9,29.66,NW,310,17.0,25.0,29,0.00,,,0.06,VWS V14.01,2013-05-12 19:13:00,
2013-05-12 15:14:00,68.4,33.1,29.66,NW,304,17.0,25.0,27,0.00,,,0.06,VWS V14.01,2013-05-12 19:14:00,
2013-05-12 15:16:00,68.1,32.9,29.66,WNW,298,14.0,25.0,27,0.00,,,0.06,VWS V14.01,2013-05-12 19:16:00,
2013-05-12 15:17:00,68.1,32.9,29.66,WSW,252,14.0,25.0,27,0.00,,,0.06,VWS V14.01,2013-05-12 19:17:00,
2013-05-12 15:19:00,68.3,33.1,29.67,West,267,12.0,29.0,27,0.00,,,0.06,VWS V14.01,2013-05-12 19:19:00,
2013-05-12 15:21:00,68.1,32.9,29.67,WNW,290,10.0,29.0,27,0.00,,,0.06,VWS V14.01,2013-05-12 19:21:00,
2013-05-12 15:22:00,67.9,32.7,29.67,WSW,258,26.0,29.0,27,0.00,,,0.06,VWS V14.01,2013-05-12 19:22:00,
2013-05-12 15:25:00,67.8,31.7,29.67,WNW,286,9.0,29.0,26,0.00,,,0.06,VWS V14.01,2013-05-12 19:25:00,
2013-05-12 15:26:00,67.6,31.5,29.67,WNW,286,12.0,29.0,26,0.00,,,0.06,VWS V14.01,2013-05-12 19:26:00,
2013-05-12 15:27:00,67.6,32.5,29.67,West,273,10.0,29.0,27,0.00,,,0.06,VWS V14.01,2013-05-12 19:27:00,
2013-05-12 15:28:00,67.8,33.5,29.67,WSW,257,3.0,29.0,28,0.00,,,0.06,VWS V14.01,2013-05-12 19:28:00,
2013-05-12 15:32:00,67.6,29.6,29.67,WNW,294,12.0,29.0,24,0.00,,,0.06,VWS V14.01,2013-05-12 19:32:00,
2013-05-12 15:34:00,67.4,29.4,29.67,West,278,11.0,29.0,24,0.00,,,0.06,VWS V14.01,2013-05-12 19:34:00,
2013-05-12 15:36:00,67.4,31.4,29.67,WNW,284,15.0,22.0,26,0.00,,,0.06,VWS V14.01,2013-05-12 19:36:00,
2013-05-12 15:37:00,67.4,29.4,29.67,NW,319,6.0,26.0,24,0.00,,,0.06,VWS V14.01,2013-05-12 19:37:00,
2013-05-12 15:41:00,67.4,32.3,29.67,West,267,3.0,26.0,27,0.00,,,0.06,VWS V14.01,2013-05-12 19:41:00,
2013-05-12 15:42:00,67.6,30.6,29.67,West,269,16.0,26.0,25,0.00,,,0.06,VWS V14.01,2013-05-12 19:42:00,
2013-05-12 15:43:00,67.6,29.6,29.67,West,279,16.0,26.0,24,0.00,,,0.06,VWS V14.01,2013-05-12 19:43:00,
2013-05-12 15:44:00,67.6,28.5,29.67,West,269,10.0,26.0,23,0.00,,,0.06,VWS V14.01,2013-05-12 19:44:00,
2013-05-12 15:45:00,67.6,29.6,29.67,West,277,13.0,26.0,24,0.00,,,0.06,VWS V14.01,2013-05-12 19:45:00,
2013-05-12 15:47:00,67.4,30.4,29.67,West,274,6.0,26.0,25,0.00,,,0.06,VWS V14.01,2013-05-12 19:47:00,
2013-05-12 15:49:00,67.4,28.4,29.67,West,271,16.0,26.0,23,0.00,,,0.06,VWS V14.01,2013-05-12 19:49:00,
2013-05-12 15:50:00,67.4,29.4,29.67,WNW,300,11.0,26.0,24,0.00,,,0.06,VWS V14.01,2013-05-12 19:50:00,
2013-05-12 15:51:00,67.4,28.4,29.67,West,278,9.0,26.0,23,0.00,,,0.06,VWS V14.01,2013-05-12 19:51:00,
2013-05-12 15:52:00,67.4,28.4,29.67,West,277,10.0,26.0,23,0.00,,,0.06,VWS V14.01,2013-05-12 19:52:00,
2013-05-12 15:55:00,67.4,29.4,29.67,West,269,17.0,26.0,24,0.00,,,0.06,VWS V14.01,2013-05-12 19:55:00,
2013-05-12 15:56:00,67.3,29.3,29.67,WSW,248,9.0,26.0,24,0.00,,,0.06,VWS V14.01,2013-05-12 19:56:00,
2013-05-12 16:00:00,67.1,27.0,29.67,West,273,12.0,30.0,22,0.00,,,0.06,VWS V14.01,2013-05-12 20:00:00,
2013-05-12 16:01:00,67.1,28.1,29.67,WSW,255,17.0,30.0,23,0.00,,,0.06,VWS V14.01,2013-05-12 20:01:00,
2013-05-12 16:02:00,67.1,27.0,29.67,West,265,19.0,30.0,22,0.00,,,0.06,VWS V14.01,2013-05-12 20:02:00,
2013-05-12 16:03:00,67.1,28.1,29.67,NW,317,8.0,30.0,23,0.00,,,0.06,VWS V14.01,2013-05-12 20:03:00,
2013-05-12 16:04:00,67.1,28.1,29.67,West,272,6.0,6.0,23,0.00,,,0.06,VWS V14.01,2013-05-12 20:04:00,
2013-05-12 16:08:00,67.3,28.3,29.67,West,266,4.0,20.0,23,0.00,,,0.06,VWS V14.01,2013-05-12 20:08:00,
2013-05-12 16:09:00,67.3,29.3,29.67,WNW,285,12.0,20.0,24,0.00,,,0.06,VWS V14.01,2013-05-12 20:09:00,
2013-05-12 16:11:00,67.4,29.4,29.67,West,275,15.0,20.0,24,0.00,,,0.06,VWS V14.01,2013-05-12 20:11:00,
2013-05-12 16:13:00,67.3,29.3,29.67,West,270,13.0,24.0,24,0.00,,,0.06,VWS V14.01,2013-05-12 20:13:00,
2013-05-12 16:15:00,66.9,29.0,29.67,NW,309,17.0,24.0,24,0.00,,,0.06,VWS V14.01,2013-05-12 20:15:00,
2013-05-12 16:16:00,66.9,29.0,29.67,West,280,10.0,24.0,24,0.00,,,0.06,VWS V14.01,2013-05-12 20:16:00,
2013-05-12 16:17:00,66.8,29.9,29.67,WNW,283,14.0,24.0,25,0.00,,,0.06,VWS V14.01,2013-05-12 20:17:00,
2013-05-12 16:19:00,66.8,29.9,29.68,West,267,10.0,27.0,25,0.00,,,0.06,VWS V14.01,2013-05-12 20:19:00,
2013-05-12 16:21:00,66.8,29.9,29.68,West,262,12.0,27.0,25,0.00,,,0.06,VWS V14.01,2013-05-12 20:21:00,
2013-05-12 16:22:00,66.8,29.9,29.68,West,265,12.0,27.0,25,0.00,,,0.06,VWS V14.01,2013-05-12 20:22:00,
2013-05-12 16:24:00,66.8,28.9,29.68,West,278,9.0,27.0,24,0.00,,,0.06,VWS V14.01,2013-05-12 20:24:00,
2013-05-12 16:26:00,66.8,28.9,29.68,West,270,8.0,27.0,24,0.00,,,0.06,VWS V14.01,2013-05-12 20:26:00,
2013-05-12 16:27:00,66.8,29.9,29.68,West,268,20.0,27.0,25,0.00,,,0.06,VWS V14.01,2013-05-12 20:27:00,
2013-05-12 16:28:00,66.8,28.9,29.68,WNW,294,12.0,30.0,24,0.00,,,0.06,VWS V14.01,2013-05-12 20:28:00,
2013-05-12 16:29:00,66.6,29.7,29.68,WSW,255,11.0,30.0,25,0.00,,,0.06,VWS V14.01,2013-05-12 20:29:00,
2013-05-12 16:32:00,66.6,28.7,29.68,WSW,237,20.0,30.0,24,0.00,,,0.06,VWS V14.01,2013-05-12 20:32:00,
2013-05-12 16:34:00,66.4,30.5,29.68,WSW,252,3.0,30.0,26,0.00,,,0.06,VWS V14.01,2013-05-12 20:34:00,
2013-05-12 16:37:00,66.9,30.0,29.68,West,277,7.0,21.0,25,0.00,,,0.06,VWS V14.01,2013-05-12 20:37:00,
2013-05-12 16:38:00,67.1,31.1,29.68,WNW,299,8.0,21.0,26,0.00,,,0.06,VWS V14.01,2013-05-12 20:38:00,
2013-05-12 16:39:00,67.1,31.1,29.68,WNW,294,18.0,21.0,26,0.00,,,0.06,VWS V14.01,2013-05-12 20:39:00,
2013-05-12 16:40:00,67.1,29.1,29.68,WNW,301,3.0,21.0,24,0.00,,,0.06,VWS V14.01,2013-05-12 20:40:00,
2013-05-12 16:44:00,66.9,29.0,29.68,West,280,14.0,25.0,24,0.00,,,0.06,VWS V14.01,2013-05-12 20:44:00,
2013-05-12 16:45:00,66.8,29.9,29.68,WNW,293,15.0,25.0,25,0.00,,,0.06,VWS V14.01,2013-05-12 20:45:00,
2013-05-12 16:47:00,66.6,28.7,29.68,NW,314,7.0,27.0,24,0.00,,,0.06,VWS V14.01,2013-05-12 20:47:00,
2013-05-12 16:48:00,66.4,28.5,29.69,WNW,302,19.0,27.0,24,0.00,,,0.06,VWS V14.01,2013-05-12 20:48:00,
2013-05-12 16:49:00,66.4,28.5,29.69,WNW,284,20.0,27.0,24,0.00,,,0.06,VWS V14.01,2013-05-12 20:49:00,
2013-05-12 16:50:00,66.3,28.5,29.69,WNW,291,18.0,27.0,24,0.00,,,0.06,VWS V14.01,2013-05-12 20:50:00,
2013-05-12 16:51:00,66.3,28.5,29.69,West,277,16.0,27.0,24,0.00,,,0.06,VWS V14.01,2013-05-12 20:51:00,
2013-05-12 16:55:00,66.1,28.3,29.69,WNW,299,15.0,27.0,24,0.00,,,0.06,VWS V14.01,2013-05-12 20:55:00,
2013-05-12 16:56:00,66.0,28.2,29.69,West,275,12.0,27.0,24,0.00,,,0.06,VWS V14.01,2013-05-12 20:56:00,
2013-05-12 16:57:00,65.8,28.0,29.69,NW,306,11.0,27.0,24,0.00,,,0.06,VWS V14.01,2013-05-12 20:57:00,
2013-05-12 16:58:00,65.6,29.8,29.69,NW,311,25.0,27.0,26,0.00,,,0.06,VWS V14.01,2013-05-12 20:58:00,
2013-05-12 17:02:00,65.8,30.0,29.69,NW,309,15.0,27.0,26,0.00,,,0.06,VWS V14.01,2013-05-12 21:02:00,
2013-05-12 17:03:00,65.8,30.0,29.70,WNW,284,17.0,27.0,26,0.00,,,0.06,VWS V14.01,2013-05-12 21:03:00,
2013-05-12 17:06:00,65.8,30.0,29.70,West,271,10.0,25.0,26,0.00,,,0.06,VWS V14.01,2013-05-12 21:06:00,
2013-05-12 17:08:00,65.8,30.0,29.70,WSW,255,8.0,25.0,26,0.00,,,0.06,VWS V14.01,2013-05-12 21:08:00,
2013-05-12 17:09:00,65.8,29.0,29.70,WNW,288,16.0,25.0,25,0.00,,,0.06,VWS V14.01,2013-05-12 21:09:00,
2013-05-12 17:14:00,65.5,28.8,29.70,NW,319,16.0,29.0,25,0.00,,,0.06,VWS V14.01,2013-05-12 21:14:00,
2013-05-12 17:15:00,65.3,29.6,29.70,NW,305,13.0,29.0,26,0.00,,,0.06,VWS V14.01,2013-05-12 21:15:00,
2013-05-12 17:16:00,65.3,29.6,29.70,WNW,287,7.0,29.0,26,0.00,,,0.06,VWS V14.01,2013-05-12 21:16:00,
2013-05-12 17:21:00,65.0,29.3,29.71,WSW,248,11.0,29.0,26,0.00,,,0.06,VWS V14.01,2013-05-12 21:21:00,
2013-05-12 17:22:00,65.0,29.3,29.71,West,261,6.0,29.0,26,0.00,,,0.06,VWS V14.01,2013-05-12 21:22:00,
2013-05-12 17:23:00,65.0,29.3,29.71,West,270,12.0,29.0,26,0.00,,,0.06,VWS V14.01,2013-05-12 21:23:00,
2013-05-12 17:24:00,65.0,29.3,29.71,NW,310,11.0,29.0,26,0.00,,,0.06,VWS V14.01,2013-05-12 21:24:00,
2013-05-12 17:25:00,65.0,29.3,29.71,WNW,298,20.0,29.0,26,0.00,,,0.06,VWS V14.01,2013-05-12 21:25:00,
2013-05-12 17:28:00,65.2,29.5,29.71,NW,310,16.0,29.0,26,0.00,,,0.06,VWS V14.01,2013-05-12 21:28:00,
2013-05-12 17:30:00,65.3,30.5,29.71,WSW,257,11.0,29.0,27,0.00,,,0.06,VWS V14.01,2013-05-12 21:30:00,
2013-05-12 17:34:00,65.2,28.5,29.72,West,261,3.0,17.0,25,0.00,,,0.06,VWS V14.01,2013-05-12 21:34:00,
2013-05-12 17:35:00,65.2,29.5,29.72,West,281,20.0,20.0,26,0.00,,,0.06,VWS V14.01,2013-05-12 21:35:00,
2013-05-12 17:36:00,65.2,29.5,29.72,NNW,333,7.0,21.0,26,0.00,,,0.06,VWS V14.01,2013-05-12 21:36:00,
2013-05-12 17:37:00,65.2,30.4,29.72,WNW,288,19.0,21.0,27,0.00,,,0.06,VWS V14.01,2013-05-12 21:37:00,
2013-05-12 17:39:00,64.8,29.1,29.72,West,270,10.0,21.0,26,0.00,,,0.06,VWS V14.01,2013-05-12 21:39:00,
2013-05-12 17:41:00,64.8,30.1,29.72,WNW,292,11.0,21.0,27,0.00,,,0.06,VWS V14.01,2013-05-12 21:41:00,
2013-05-12 17:42:00,64.8,29.1,29.72,WNW,289,17.0,21.0,26,0.00,,,0.06,VWS V14.01,2013-05-12 21:42:00,
2013-05-12 17:43:00,64.7,29.0,29.72,WNW,298,14.0,21.0,26,0.00,,,0.06,VWS V14.01,2013-05-12 21:43:00,
2013-05-12 17:45:00,64.5,29.8,29.72,NNW,327,15.0,21.0,27,0.00,,,0.06,VWS V14.01,2013-05-12 21:45:00,
2013-05-12 17:46:00,64.3,29.6,29.72,WNW,284,18.0,23.0,27,0.00,,,0.06,VWS V14.01,2013-05-12 21:46:00,
2013-05-12 17:48:00,64.2,29.5,29.73,WSW,248,14.0,23.0,27,0.00,,,0.06,VWS V14.01,2013-05-12 21:48:00,
2013-05-12 17:49:00,64.0,29.4,29.73,WNW,288,8.0,23.0,27,0.00,,,0.06,VWS V14.01,2013-05-12 21:49:00,
2013-05-12 17:51:00,63.9,29.3,29.73,NW,321,16.0,26.0,27,0.00,,,0.06,VWS V14.01,2013-05-12 21:51:00,
2013-05-12 17:53:00,63.9,30.2,29.73,WNW,290,21.0,26.0,28,0.00,,,0.06,VWS V14.01,2013-05-12 21:53:00,
2013-05-12 17:54:00,63.9,29.3,29.73,WNW,288,19.0,26.0,27,0.00,,,0.06,VWS V14.01,2013-05-12 21:54:00,
2013-05-12 17:55:00,63.7,29.1,29.73,WNW,300,17.0,26.0,27,0.00,,,0.06,VWS V14.01,2013-05-12 21:55:00,
2013-05-12 17:56:00,63.5,29.0,29.73,WNW,300,12.0,26.0,27,0.00,,,0.06,VWS V14.01,2013-05-12 21:56:00,
2013-05-12 17:57:00,63.5,29.8,29.73,WNW,299,20.0,26.0,28,0.00,,,0.06,VWS V14.01,2013-05-12 21:57:00,
2013-05-12 18:00:00,63.4,28.9,29.73,WNW,298,15.0,26.0,27,0.00,,,0.06,VWS V14.01,2013-05-12 22:00:00,
2013-05-12 18:02:00,63.4,29.8,29.73,WSW,252,14.0,26.0,28,0.00,,,0.06,VWS V14.01,2013-05-12 22:02:00,
2013-05-12 18:04:00,63.4,28.9,29.73,NW,309,4.0,26.0,27,0.00,,,0.06,VWS V14.01,2013-05-12 22:04:00,
2013-05-12 18:05:00,63.5,29.8,29.73,West,277,10.0,17.0,28,0.00,,,0.06,VWS V14.01,2013-05-12 22:05:00,
2013-05-12 18:07:00,63.5,29.8,29.73,NW,314,9.0,18.0,28,0.00,,,0.06,VWS V14.01,2013-05-12 22:07:00,
2013-05-12 18:09:00,63.2,28.7,29.73,NW,310,12.0,25.0,27,0.00,,,0.06,VWS V14.01,2013-05-12 22:09:00,
2013-05-12 18:10:00,63.2,29.6,29.73,WNW,297,11.0,25.0,28,0.00,,,0.06,VWS V14.01,2013-05-12 22:10:00,
2013-05-12 18:15:00,62.9,29.3,29.73,WNW,287,8.0,25.0,28,0.00,,,0.06,VWS V14.01,2013-05-12 22:15:00,
2013-05-12 18:16:00,62.9,29.3,29.73,WNW,282,10.0,25.0,28,0.00,,,0.06,VWS V14.01,2013-05-12 22:16:00,
2013-05-12 18:18:00,63.1,29.5,29.73,WNW,292,11.0,25.0,28,0.00,,,0.06,VWS V14.01,2013-05-12 22:18:00,
2013-05-12 18:19:00,63.1,28.6,29.74,West,267,7.0,25.0,27,0.00,,,0.06,VWS V14.01,2013-05-12 22:19:00,
2013-05-12 18:20:00,63.1,29.5,29.74,West,275,15.0,25.0,28,0.00,,,0.06,VWS V14.01,2013-05-12 22:20:00,
2013-05-12 18:24:00,63.1,28.6,29.74,WNW,285,12.0,26.0,27,0.00,,,0.06,VWS V14.01,2013-05-12 22:24:00,
2013-05-12 18:25:00,62.9,29.3,29.74,WNW,290,13.0,26.0,28,0.00,,,0.06,VWS V14.01,2013-05-12 22:25:00,
2013-05-12 18:26:00,62.9,28.4,29.74,NW,304,12.0,26.0,27,0.00,,,0.06,VWS V14.01,2013-05-12 22:26:00,
2013-05-12 18:30:00,62.7,29.1,29.74,WNW,302,16.0,26.0,28,0.00,,,0.06,VWS V14.01,2013-05-12 22:30:00,
2013-05-12 18:31:00,62.6,28.2,29.74,WNW,303,20.0,26.0,27,0.00,,,0.06,VWS V14.01,2013-05-12 22:31:00,
2013-05-12 18:34:00,62.3,27.9,29.74,West,271,12.0,26.0,27,0.00,,,0.06,VWS V14.01,2013-05-12 22:34:00,
2013-05-12 18:36:00,62.3,27.9,29.74,NW,306,11.0,19.0,27,0.00,,,0.06,VWS V14.01,2013-05-12 22:36:00,
2013-05-12 18:37:00,62.1,27.8,29.74,WNW,284,18.0,22.0,27,0.00,,,0.06,VWS V14.01,2013-05-12 22:37:00,
2013-05-12 18:38:00,62.1,27.8,29.74,WNW,286,13.0,22.0,27,0.00,,,0.06,VWS V14.01,2013-05-12 22:38:00,
2013-05-12 18:41:00,62.0,28.5,29.74,West,271,10.0,22.0,28,0.00,,,0.06,VWS V14.01,2013-05-12 22:41:00,
2013-05-12 18:42:00,62.0,28.5,29.74,West,271,16.0,22.0,28,0.00,,,0.06,VWS V14.01,2013-05-12 22:42:00,
2013-05-12 18:43:00,62.0,28.5,29.74,NW,305,12.0,26.0,28,0.00,,,0.06,VWS V14.01,2013-05-12 22:43:00,
2013-05-12 18:46:00,62.0,28.5,29.74,WNW,297,10.0,26.0,28,0.00,,,0.06,VWS V14.01,2013-05-12 22:46:00,
2013-05-12 18:49:00,62.0,28.5,29.74,NW,306,12.0,26.0,28,0.00,,,0.06,VWS V14.01,2013-05-12 22:49:00,
2013-05-12 18:51:00,62.0,28.5,29.74,West,272,14.0,26.0,28,0.00,,,0.06,VWS V14.01,2013-05-12 22:51:00,
2013-05-12 18:52:00,62.0,28.5,29.74,WNW,296,7.0,26.0,28,0.00,,,0.06,VWS V14.01,2013-05-12 22:52:00,
2013-05-12 18:54:00,61.8,28.4,29.74,WNW,295,6.0,26.0,28,0.00,,,0.06,VWS V14.01,2013-05-12 22:54:00,
2013-05-12 18:56:00,61.8,28.4,29.74,WNW,292,11.0,26.0,28,0.00,,,0.06,VWS V14.01,2013-05-12 22:56:00,
2013-05-12 19:01:00,61.3,27.9,29.74,West,281,10.0,26.0,28,0.00,,,0.06,VWS V14.01,2013-05-12 23:01:00,
2013-05-12 19:02:00,61.3,27.1,29.74,WNW,290,12.0,26.0,27,0.00,,,0.06,VWS V14.01,2013-05-12 23:02:00,
2013-05-12 19:03:00,61.3,27.9,29.74,WNW,303,11.0,26.0,28,0.00,,,0.06,VWS V14.01,2013-05-12 23:03:00,
2013-05-12 19:07:00,61.2,27.0,29.76,WNW,298,6.0,14.0,27,0.00,,,0.06,VWS V14.01,2013-05-12 23:07:00,
2013-05-12 19:08:00,61.2,27.9,29.76,West,273,7.0,20.0,28,0.00,,,0.06,VWS V14.01,2013-05-12 23:08:00,
2013-05-12 19:10:00,61.0,27.7,29.76,WNW,286,15.0,20.0,28,0.00,,,0.06,VWS V14.01,2013-05-12 23:10:00,
2013-05-12 19:13:00,60.9,27.6,29.76,WNW,296,7.0,20.0,28,0.00,,,0.06,VWS V14.01,2013-05-12 23:13:00,
2013-05-12 19:14:00,60.9,28.5,29.76,NW,314,13.0,21.0,29,0.00,,,0.06,VWS V14.01,2013-05-12 23:14:00,
2013-05-12 19:15:00,60.7,27.4,29.76,West,267,10.0,27.0,28,0.00,,,0.06,VWS V14.01,2013-05-12 23:15:00,
2013-05-12 19:16:00,60.5,26.4,29.76,West,281,18.0,27.0,27,0.00,,,0.06,VWS V14.01,2013-05-12 23:16:00,
2013-05-12 19:18:00,60.4,27.2,29.76,WNW,284,11.0,27.0,28,0.00,,,0.06,VWS V14.01,2013-05-12 23:18:00,
2013-05-12 19:20:00,60.2,27.0,29.77,WNW,298,14.0,27.0,28,0.00,,,0.06,VWS V14.01,2013-05-12 23:20:00,
2013-05-12 19:21:00,60.2,27.0,29.77,West,275,14.0,27.0,28,0.00,,,0.06,VWS V14.01,2013-05-12 23:21:00,
2013-05-12 19:22:00,60.1,26.9,29.77,West,272,11.0,27.0,28,0.00,,,0.06,VWS V14.01,2013-05-12 23:22:00,
2013-05-12 19:23:00,60.1,26.0,29.77,NNW,341,12.0,27.0,27,0.00,,,0.06,VWS V14.01,2013-05-12 23:23:00,
2013-05-12 19:24:00,60.1,26.9,29.77,West,262,12.0,27.0,28,0.00,,,0.06,VWS V14.01,2013-05-12 23:24:00,
2013-05-12 19:27:00,59.8,26.6,29.77,WNW,284,7.0,27.0,28,0.00,,,0.06,VWS V14.01,2013-05-12 23:27:00,
2013-05-12 19:29:00,59.8,25.8,29.77,West,273,12.0,27.0,27,0.00,,,0.06,VWS V14.01,2013-05-12 23:29:00,
2013-05-12 19:31:00,59.6,25.6,29.77,WNW,284,6.0,27.0,27,0.00,,,0.06,VWS V14.01,2013-05-12 23:31:00,
2013-05-12 19:32:00,59.6,26.5,29.77,WNW,288,8.0,27.0,28,0.00,,,0.06,VWS V14.01,2013-05-12 23:32:00,
2013-05-12 19:33:00,59.6,26.5,29.77,West,263,16.0,27.0,28,0.00,,,0.06,VWS V14.01,2013-05-12 23:33:00,
2013-05-12 19:34:00,59.5,26.4,29.78,West,261,14.0,27.0,28,0.00,,,0.06,VWS V14.01,2013-05-12 23:34:00,
2013-05-12 19:36:00,59.5,25.5,29.78,West,277,10.0,20.0,27,0.00,,,0.06,VWS V14.01,2013-05-12 23:36:00,
2013-05-12 19:39:00,59.3,26.2,29.78,West,280,11.0,20.0,28,0.00,,,0.06,VWS V14.01,2013-05-12 23:39:00,
2013-05-12 19:40:00,59.2,26.1,29.78,WSW,257,8.0,20.0,28,0.00,,,0.06,VWS V14.01,2013-05-12 23:40:00,
2013-05-12 19:41:00,59.2,26.1,29.78,West,260,7.0,20.0,28,0.00,,,0.06,VWS V14.01,2013-05-12 23:41:00,
2013-05-12 19:42:00,59.2,26.1,29.78,West,267,10.0,20.0,28,0.00,,,0.06,VWS V14.01,2013-05-12 23:42:00,
2013-05-12 19:44:00,59.2,26.1,29.78,West,270,14.0,20.0,28,0.00,,,0.06,VWS V14.01,2013-05-12 23:44:00,
2013-05-12 19:45:00,59.0,25.1,29.78,West,274,15.0,20.0,27,0.00,,,0.06,VWS V14.01,2013-05-12 23:45:00,
2013-05-12 19:46:00,59.0,25.1,29.78,WSW,243,8.0,20.0,27,0.00,,,0.06,VWS V14.01,2013-05-12 23:46:00,
2013-05-12 19:48:00,58.9,25.9,29.78,WNW,289,7.0,20.0,28,0.00,,,0.06,VWS V14.01,2013-05-12 23:48:00,
2013-05-12 19:50:00,58.9,25.9,29.79,West,268,13.0,20.0,28,0.00,,,0.06,VWS V14.01,2013-05-12 23:50:00,
2013-05-12 19:52:00,58.9,25.9,29.79,NW,312,9.0,20.0,28,0.00,,,0.06,VWS V14.01,2013-05-12 23:52:00,
2013-05-12 19:53:00,58.7,25.7,29.79,NW,323,8.0,20.0,28,0.00,,,0.06,VWS V14.01,2013-05-12 23:53:00,
2013-05-12 19:57:00,58.6,25.6,29.79,NW,308,12.0,20.0,28,0.00,,,0.06,VWS V14.01,2013-05-12 23:57:00,
2013-05-12 19:58:00,58.6,24.8,29.79,West,275,10.0,20.0,27,0.00,,,0.06,VWS V14.01,2013-05-12 23:58:00,
2013-05-12 19:59:00,58.6,24.8,29.79,SW,235,11.0,20.0,27,0.00,,,0.06,VWS V14.01,2013-05-12 23:59:00,
2013-05-12 20:00:00,58.4,24.6,29.79,WNW,292,10.0,20.0,27,0.00,,,0.06,VWS V14.01,2013-05-13 00:00:00,
2013-05-12 20:03:00,58.4,24.6,29.79,West,272,10.0,20.0,27,0.00,,,0.06,VWS V14.01,2013-05-13 00:03:00,
2013-05-12 20:05:00,58.4,24.6,29.79,West,278,4.0,14.0,27,0.00,,,0.06,VWS V14.01,2013-05-13 00:05:00,
2013-05-12 20:07:00,58.3,26.2,29.79,NW,311,8.0,14.0,29,0.00,,,0.06,VWS V14.01,2013-05-13 00:07:00,
2013-05-12 20:10:00,58.3,25.4,29.79,WNW,290,7.0,14.0,28,0.00,,,0.06,VWS V14.01,2013-05-13 00:10:00,
2013-05-12 20:14:00,58.1,26.0,29.79,West,281,5.0,16.0,29,0.00,,,0.06,VWS V14.01,2013-05-13 00:14:00,
2013-05-12 20:15:00,58.0,26.0,29.79,West,271,7.0,16.0,29,0.00,,,0.06,VWS V14.01,2013-05-13 00:15:00,
2013-05-12 20:17:00,58.0,26.0,29.79,NW,309,5.0,16.0,29,0.00,,,0.06,VWS V14.01,2013-05-13 00:17:00,
2013-05-12 20:18:00,58.0,26.0,29.79,WNW,299,0.0,16.0,29,0.00,,,0.06,VWS V14.01,2013-05-13 00:18:00,
2013-05-12 20:20:00,57.8,25.8,29.79,WNW,300,8.0,16.0,29,0.00,,,0.06,VWS V14.01,2013-05-13 00:20:00,
2013-05-12 20:21:00,57.8,26.6,29.79,WNW,288,7.0,16.0,30,0.00,,,0.06,VWS V14.01,2013-05-13 00:21:00,
2013-05-12 20:24:00,57.6,26.4,29.79,West,281,3.0,16.0,30,0.00,,,0.06,VWS V14.01,2013-05-13 00:24:00,
2013-05-12 20:25:00,57.6,27.2,29.79,West,270,12.0,16.0,31,0.00,,,0.06,VWS V14.01,2013-05-13 00:25:00,
2013-05-12 20:26:00,57.6,26.4,29.79,West,262,8.0,16.0,30,0.00,,,0.06,VWS V14.01,2013-05-13 00:26:00,
2013-05-12 20:28:00,57.5,27.1,29.79,WNW,291,0.0,16.0,31,0.00,,,0.06,VWS V14.01,2013-05-13 00:28:00,
2013-05-12 20:30:00,57.5,26.3,29.79,West,275,9.0,16.0,30,0.00,,,0.06,VWS V14.01,2013-05-13 00:30:00,
2013-05-12 20:33:00,57.3,27.0,29.79,WNW,294,3.0,16.0,31,0.00,,,0.06,VWS V14.01,2013-05-13 00:33:00,
2013-05-12 20:35:00,57.3,26.2,29.80,West,272,12.0,12.0,30,0.00,,,0.06,VWS V14.01,2013-05-13 00:35:00,
2013-05-12 20:36:00,57.3,26.2,29.80,West,271,6.0,16.0,30,0.00,,,0.06,VWS V14.01,2013-05-13 00:36:00,
2013-05-12 20:37:00,57.2,26.1,29.80,West,273,5.0,16.0,30,0.00,,,0.06,VWS V14.01,2013-05-13 00:37:00,
2013-05-12 20:38:00,57.2,26.9,29.80,West,280,5.0,16.0,31,0.00,,,0.06,VWS V14.01,2013-05-13 00:38:00,
2013-05-12 20:39:00,57.2,26.9,29.80,West,265,1.0,16.0,31,0.00,,,0.06,VWS V14.01,2013-05-13 00:39:00,
2013-05-12 20:40:00,57.2,26.9,29.80,West,275,3.0,16.0,31,0.00,,,0.06,VWS V14.01,2013-05-13 00:40:00,
2013-05-12 20:42:00,57.2,26.9,29.80,WNW,285,5.0,16.0,31,0.00,,,0.06,VWS V14.01,2013-05-13 00:42:00,
2013-05-12 20:43:00,57.0,26.7,29.80,West,266,4.0,16.0,31,0.00,,,0.06,VWS V14.01,2013-05-13 00:43:00,
2013-05-12 20:48:00,56.9,26.6,29.80,WNW,288,8.0,16.0,31,0.00,,,0.06,VWS V14.01,2013-05-13 00:48:00,
2013-05-12 20:49:00,56.9,26.6,29.81,WSW,254,10.0,16.0,31,0.00,,,0.06,VWS V14.01,2013-05-13 00:49:00,
2013-05-12 20:50:00,56.9,26.6,29.81,West,271,8.0,16.0,31,0.00,,,0.06,VWS V14.01,2013-05-13 00:50:00,
2013-05-12 20:52:00,56.9,26.6,29.81,West,273,11.0,16.0,31,0.00,,,0.06,VWS V14.01,2013-05-13 00:52:00,
2013-05-12 20:54:00,56.7,26.4,29.81,WSW,254,8.0,16.0,31,0.00,,,0.06,VWS V14.01,2013-05-13 00:54:00,
2013-05-12 20:56:00,56.7,26.4,29.81,West,262,5.0,16.0,31,0.00,,,0.06,VWS V14.01,2013-05-13 00:56:00,
2013-05-12 20:57:00,56.7,26.4,29.81,West,269,1.0,16.0,31,0.00,,,0.06,VWS V14.01,2013-05-13 00:57:00,
2013-05-12 20:58:00,56.7,27.2,29.81,West,267,5.0,16.0,32,0.00,,,0.06,VWS V14.01,2013-05-13 00:58:00,
2013-05-12 20:59:00,56.6,27.1,29.81,WNW,282,7.0,16.0,32,0.00,,,0.06,VWS V14.01,2013-05-13 00:59:00,
2013-05-12 21:02:00,56.6,27.1,29.81,West,272,5.0,16.0,32,0.00,,,0.06,VWS V14.01,2013-05-13 01:02:00,
2013-05-12 21:03:00,56.6,27.1,29.81,West,279,6.0,16.0,32,0.00,,,0.06,VWS V14.01,2013-05-13 01:03:00,
2013-05-12 21:04:00,56.6,27.1,29.82,West,273,3.0,16.0,32,0.00,,,0.06,VWS V14.01,2013-05-13 01:04:00,
2013-05-12 21:05:00,56.5,27.0,29.82,West,281,2.0,7.0,32,0.00,,,0.06,VWS V14.01,2013-05-13 01:05:00,
2013-05-12 21:08:00,56.5,27.0,29.82,West,277,4.0,12.0,32,0.00,,,0.06,VWS V14.01,2013-05-13 01:08:00,
2013-05-12 21:09:00,56.3,26.8,29.82,West,275,0.0,12.0,32,0.00,,,0.06,VWS V14.01,2013-05-13 01:09:00,
2013-05-12 21:10:00,56.3,27.6,29.82,WNW,294,10.0,12.0,33,0.00,,,0.06,VWS V14.01,2013-05-13 01:10:00,
2013-05-12 21:11:00,56.3,26.8,29.82,SW,232,2.0,12.0,32,0.00,,,0.06,VWS V14.01,2013-05-13 01:11:00,
2013-05-12 21:16:00,56.0,26.6,29.82,West,270,10.0,13.0,32,0.00,,,0.06,VWS V14.01,2013-05-13 01:16:00,
2013-05-12 21:17:00,56.0,26.6,29.82,West,269,7.0,14.0,32,0.00,,,0.06,VWS V14.01,2013-05-13 01:17:00,
2013-05-12 21:18:00,56.0,27.3,29.82,WNW,284,6.0,14.0,33,0.00,,,0.06,VWS V14.01,2013-05-13 01:18:00,
2013-05-12 21:21:00,56.0,27.3,29.83,West,261,2.0,14.0,33,0.00,,,0.06,VWS V14.01,2013-05-13 01:21:00,
2013-05-12 21:23:00,55.9,27.2,29.83,West,281,7.0,14.0,33,0.00,,,0.06,VWS V14.01,2013-05-13 01:23:00,
2013-05-12 21:25:00,55.9,27.2,29.83,West,270,7.0,14.0,33,0.00,,,0.06,VWS V14.01,2013-05-13 01:25:00,
2013-05-12 21:26:00,55.9,27.2,29.83,West,260,0.0,14.0,33,0.00,,,0.06,VWS V14.01,2013-05-13 01:26:00,
2013-05-12 21:27:00,55.9,27.2,29.83,West,278,5.0,14.0,33,0.00,,,0.06,VWS V14.01,2013-05-13 01:27:00,
2013-05-12 21:30:00,55.7,27.1,29.83,WSW,256,5.0,14.0,33,0.00,,,0.06,VWS V14.01,2013-05-13 01:30:00,
2013-05-12 21:31:00,55.7,27.1,29.83,WNW,287,4.0,14.0,33,0.00,,,0.06,VWS V14.01,2013-05-13 01:31:00,
2013-05-12 21:33:00,55.7,27.1,29.83,West,269,5.0,14.0,33,0.00,,,0.06,VWS V14.01,2013-05-13 01:33:00,
2013-05-12 21:34:00,55.7,27.1,29.84,West,271,3.0,14.0,33,0.00,,,0.06,VWS V14.01,2013-05-13 01:34:00,
2013-05-12 21:35:00,55.7,27.1,29.84,WNW,284,6.0,9.0,33,0.00,,,0.06,VWS V14.01,2013-05-13 01:35:00,
2013-05-12 21:40:00,55.6,27.0,29.84,West,260,3.0,9.0,33,0.00,,,0.06,VWS V14.01,2013-05-13 01:40:00,
2013-05-12 21:41:00,55.6,27.7,29.84,WNW,284,4.0,9.0,34,0.00,,,0.06,VWS V14.01,2013-05-13 01:41:00,
2013-05-12 21:43:00,55.4,27.5,29.84,West,269,4.0,9.0,34,0.00,,,0.06,VWS V14.01,2013-05-13 01:43:00,
2013-05-12 21:44:00,55.4,27.5,29.84,West,272,8.0,9.0,34,0.00,,,0.06,VWS V14.01,2013-05-13 01:44:00,
2013-05-12 21:46:00,55.3,27.4,29.84,West,281,10.0,11.0,34,0.00,,,0.06,VWS V14.01,2013-05-13 01:46:00,
2013-05-12 21:47:00,55.3,27.4,29.84,West,278,8.0,13.0,34,0.00,,,0.06,VWS V14.01,2013-05-13 01:47:00,
2013-05-12 21:49:00,55.3,27.4,29.85,WSW,255,2.0,13.0,34,0.00,,,0.06,VWS V14.01,2013-05-13 01:49:00,
2013-05-12 21:50:00,55.1,27.3,29.85,West,278,6.0,13.0,34,0.00,,,0.06,VWS V14.01,2013-05-13 01:50:00,
2013-05-12 21:52:00,55.1,28.0,29.85,West,278,3.0,13.0,35,0.00,,,0.06,VWS V14.01,2013-05-13 01:52:00,
2013-05-12 21:53:00,55.1,27.3,29.85,West,271,7.0,13.0,34,0.00,,,0.06,VWS V14.01,2013-05-13 01:53:00,
2013-05-12 21:54:00,55.1,27.3,29.85,West,272,9.0,13.0,34,0.00,,,0.06,VWS V14.01,2013-05-13 01:54:00,
2013-05-12 21:58:00,55.0,27.2,29.85,West,267,4.0,13.0,34,0.00,,,0.06,VWS V14.01,2013-05-13 01:58:00,
2013-05-12 21:59:00,55.0,27.2,29.85,West,263,9.0,13.0,34,0.00,,,0.06,VWS V14.01,2013-05-13 01:59:00,
2013-05-12 22:00:00,55.0,27.2,29.85,SW,231,9.0,13.0,34,0.00,,,0.06,VWS V14.01,2013-05-13 02:00:00,
2013-05-12 22:01:00,54.8,27.0,29.85,WSW,257,0.0,13.0,34,0.00,,,0.06,VWS V14.01,2013-05-13 02:01:00,
2013-05-12 22:04:00,54.8,27.0,29.85,West,268,7.0,13.0,34,0.00,,,0.06,VWS V14.01,2013-05-13 02:04:00,
2013-05-12 22:07:00,54.8,27.0,29.85,WNW,283,5.0,14.0,34,0.00,,,0.06,VWS V14.01,2013-05-13 02:07:00,
2013-05-12 22:08:00,54.8,27.0,29.85,West,259,9.0,14.0,34,0.00,,,0.06,VWS V14.01,2013-05-13 02:08:00,
2013-05-12 22:12:00,54.8,27.7,29.85,WNW,287,8.0,14.0,35,0.00,,,0.06,VWS V14.01,2013-05-13 02:12:00,
2013-05-12 22:13:00,54.8,27.0,29.85,WNW,286,12.0,14.0,34,0.00,,,0.06,VWS V14.01,2013-05-13 02:13:00,
2013-05-12 22:14:00,54.8,27.0,29.85,West,263,4.0,14.0,34,0.00,,,0.06,VWS V14.01,2013-05-13 02:14:00,
2013-05-12 22:17:00,54.7,27.6,29.85,West,275,7.0,14.0,35,0.00,,,0.06,VWS V14.01,2013-05-13 02:17:00,
2013-05-12 22:18:00,54.7,27.6,29.87,WNW,287,4.0,14.0,35,0.00,,,0.06,VWS V14.01,2013-05-13 02:18:00,
2013-05-12 22:19:00,54.7,27.6,29.87,WNW,303,7.0,14.0,35,0.00,,,0.06,VWS V14.01,2013-05-13 02:19:00,
2013-05-12 22:22:00,54.7,27.6,29.87,WNW,290,4.0,14.0,35,0.00,,,0.06,VWS V14.01,2013-05-13 02:22:00,
2013-05-12 22:24:00,54.5,27.4,29.87,WNW,290,8.0,14.0,35,0.00,,,0.06,VWS V14.01,2013-05-13 02:24:00,
2013-05-12 22:27:00,54.5,28.1,29.87,WNW,284,2.0,14.0,36,0.00,,,0.06,VWS V14.01,2013-05-13 02:27:00,
2013-05-12 22:28:00,54.5,28.1,29.87,WNW,290,10.0,14.0,36,0.00,,,0.06,VWS V14.01,2013-05-13 02:28:00,
2013-05-12 22:29:00,54.5,28.1,29.87,West,279,4.0,14.0,36,0.00,,,0.06,VWS V14.01,2013-05-13 02:29:00,
2013-05-12 22:31:00,54.5,27.4,29.87,NW,310,10.0,14.0,35,0.00,,,0.06,VWS V14.01,2013-05-13 02:31:00,
2013-05-12 22:32:00,54.5,28.1,29.87,WNW,290,10.0,15.0,36,0.00,,,0.06,VWS V14.01,2013-05-13 02:32:00,
2013-05-12 22:33:00,54.5,28.1,29.87,NW,305,10.0,15.0,36,0.00,,,0.06,VWS V14.01,2013-05-13 02:33:00,
2013-05-12 22:35:00,54.5,28.1,29.87,West,277,11.0,12.0,36,0.00,,,0.06,VWS V14.01,2013-05-13 02:35:00,
2013-05-12 22:36:00,54.5,28.1,29.87,WNW,295,7.0,15.0,36,0.00,,,0.06,VWS V14.01,2013-05-13 02:36:00,
2013-05-12 22:37:00,54.4,28.0,29.87,NW,308,13.0,15.0,36,0.00,,,0.06,VWS V14.01,2013-05-13 02:37:00,
2013-05-12 22:40:00,54.4,28.7,29.87,NW,311,5.0,15.0,37,0.00,,,0.06,VWS V14.01,2013-05-13 02:40:00,
2013-05-12 22:41:00,54.4,29.3,29.87,WNW,298,2.0,15.0,38,0.00,,,0.06,VWS V14.01,2013-05-13 02:41:00,
2013-05-12 22:42:00,54.4,28.7,29.87,NNW,335,9.0,15.0,37,0.00,,,0.06,VWS V14.01,2013-05-13 02:42:00,
2013-05-12 22:43:00,54.2,29.2,29.87,WNW,298,8.0,15.0,38,0.00,,,0.06,VWS V14.01,2013-05-13 02:43:00,
2013-05-12 22:46:00,54.1,29.1,29.87,WNW,288,7.0,15.0,38,0.00,,,0.06,VWS V14.01,2013-05-13 02:46:00,
2013-05-12 22:47:00,54.1,29.1,29.87,WNW,298,3.0,15.0,38,0.00,,,0.06,VWS V14.01,2013-05-13 02:47:00,
2013-05-12 22:49:00,54.1,29.7,29.88,WNW,285,7.0,15.0,39,0.00,,,0.06,VWS V14.01,2013-05-13 02:49:00,
2013-05-12 22:51:00,53.9,29.5,29.88,WNW,288,7.0,15.0,39,0.00,,,0.06,VWS V14.01,2013-05-13 02:51:00,
2013-05-12 22:52:00,53.9,29.5,29.88,WNW,284,5.0,15.0,39,0.00,,,0.06,VWS V14.01,2013-05-13 02:52:00,
2013-05-12 22:53:00,53.9,29.5,29.88,NNW,331,0.0,15.0,39,0.00,,,0.06,VWS V14.01,2013-05-13 02:53:00,
2013-05-12 22:54:00,53.8,29.4,29.88,WNW,294,5.0,15.0,39,0.00,,,0.06,VWS V14.01,2013-05-13 02:54:00,
2013-05-12 22:58:00,53.6,29.3,29.88,NNW,332,6.0,15.0,39,0.00,,,0.06,VWS V14.01,2013-05-13 02:58:00,
2013-05-12 22:59:00,53.6,29.3,29.88,WNW,283,3.0,15.0,39,0.00,,,0.06,VWS V14.01,2013-05-13 02:59:00,
2013-05-12 23:00:00,53.6,29.3,29.88,WNW,287,7.0,15.0,39,0.00,,,0.06,VWS V14.01,2013-05-13 03:00:00,
2013-05-12 23:03:00,53.5,29.8,29.88,WNW,299,8.0,15.0,40,0.00,,,0.06,VWS V14.01,2013-05-13 03:03:00,
2013-05-12 23:04:00,53.5,29.8,29.88,WNW,300,5.0,15.0,40,0.00,,,0.06,VWS V14.01,2013-05-13 03:04:00,
2013-05-12 23:05:00,53.5,29.8,29.88,WNW,301,9.0,9.0,40,0.00,,,0.06,VWS V14.01,2013-05-13 03:05:00,
2013-05-12 23:08:00,53.5,29.8,29.88,WNW,296,5.0,12.0,40,0.00,,,0.06,VWS V14.01,2013-05-13 03:08:00,
2013-05-12 23:11:00,53.3,29.6,29.88,WNW,289,7.0,18.0,40,0.00,,,0.06,VWS V14.01,2013-05-13 03:11:00,
2013-05-12 23:14:00,53.3,29.6,29.88,NW,316,7.0,18.0,40,0.00,,,0.06,VWS V14.01,2013-05-13 03:14:00,
2013-05-12 23:17:00,53.3,29.6,29.88,NW,311,6.0,18.0,40,0.00,,,0.06,VWS V14.01,2013-05-13 03:17:00,
2013-05-12 23:18:00,53.3,30.2,29.88,WNW,302,9.0,18.0,41,0.00,,,0.06,VWS V14.01,2013-05-13 03:18:00,
2013-05-12 23:20:00,53.2,30.1,29.89,WNW,302,7.0,18.0,41,0.00,,,0.06,VWS V14.01,2013-05-13 03:20:00,
2013-05-12 23:21:00,53.2,30.1,29.89,NW,308,14.0,18.0,41,0.00,,,0.06,VWS V14.01,2013-05-13 03:21:00,
2013-05-12 23:22:00,53.2,30.1,29.89,NW,305,10.0,18.0,41,0.00,,,0.06,VWS V14.01,2013-05-13 03:22:00,
2013-05-12 23:23:00,53.2,30.1,29.89,NW,313,3.0,18.0,41,0.00,,,0.06,VWS V14.01,2013-05-13 03:23:00,
2013-05-12 23:26:00,53.1,30.0,29.89,NW,307,8.0,18.0,41,0.00,,,0.06,VWS V14.01,2013-05-13 03:26:00,
2013-05-12 23:27:00,53.1,30.0,29.89,WNW,284,11.0,18.0,41,0.00,,,0.06,VWS V14.01,2013-05-13 03:27:00,
2013-05-12 23:28:00,53.1,30.0,29.89,WNW,286,9.0,18.0,41,0.00,,,0.06,VWS V14.01,2013-05-13 03:28:00,
2013-05-12 23:32:00,52.9,30.5,29.89,West,276,10.0,18.0,42,0.00,,,0.06,VWS V14.01,2013-05-13 03:32:00,
2013-05-12 23:34:00,52.9,30.5,29.89,WNW,289,6.0,18.0,42,0.00,,,0.06,VWS V14.01,2013-05-13 03:34:00,
2013-05-12 23:36:00,52.8,30.4,29.89,WNW,292,3.0,11.0,42,0.00,,,0.06,VWS V14.01,2013-05-13 03:36:00,
2013-05-12 23:37:00,52.8,30.4,29.89,WNW,302,4.0,11.0,42,0.00,,,0.06,VWS V14.01,2013-05-13 03:37:00,
2013-05-12 23:39:00,52.6,30.8,29.89,WNW,296,7.0,11.0,43,0.00,,,0.06,VWS V14.01,2013-05-13 03:39:00,
2013-05-12 23:40:00,52.6,30.8,29.89,WNW,292,4.0,11.0,43,0.00,,,0.06,VWS V14.01,2013-05-13 03:40:00,
2013-05-12 23:41:00,52.5,30.7,29.89,WNW,283,7.0,13.0,43,0.00,,,0.06,VWS V14.01,2013-05-13 03:41:00,
2013-05-12 23:42:00,52.5,30.7,29.89,WNW,291,2.0,13.0,43,0.00,,,0.06,VWS V14.01,2013-05-13 03:42:00,
2013-05-12 23:46:00,52.3,30.5,29.89,WNW,300,7.0,13.0,43,0.00,,,0.06,VWS V14.01,2013-05-13 03:46:00,
2013-05-12 23:47:00,52.3,30.5,29.89,WNW,298,9.0,13.0,43,0.00,,,0.06,VWS V14.01,2013-05-13 03:47:00,
2013-05-12 23:48:00,52.3,30.5,29.89,West,274,4.0,13.0,43,0.00,,,0.06,VWS V14.01,2013-05-13 03:48:00,
2013-05-12 23:49:00,52.3,31.0,29.90,NW,311,9.0,13.0,44,0.00,,,0.06,VWS V14.01,2013-05-13 03:49:00,
2013-05-12 23:52:00,52.2,30.4,29.90,WNW,298,9.0,13.0,43,0.00,,,0.06,VWS V14.01,2013-05-13 03:52:00,
2013-05-12 23:55:00,52.2,30.4,29.90,West,276,6.0,13.0,43,0.00,,,0.06,VWS V14.01,2013-05-13 03:55:00,
2013-05-12 23:57:00,52.0,30.8,29.90,WNW,297,4.0,13.0,44,0.00,,,0.06,VWS V14.01,2013-05-13 03:57:00,
2013-05-12 23:58:00,52.0,30.8,29.90,West,278,8.0,13.0,44,0.00,,,0.06,VWS V14.01,2013-05-13 03:58:00,